<?xml version="1.0" encoding="UTF-8" standalone="no" ?>
<gpx xmlns="http://www.topografix.com/GPX/1/1" xmlns:xsi="http://www.w3.org/2001/XMLSchema-instance" xsi:schemaLocation="http://www.topografix.com/GPX/1/1 http://www.topografix.com/GPX/1/1/gpx.xsd" version="1.1" creator="VisuGPX - https://www.visugpx.com">
  <metadata>
    <name>Marche Lucas 25km 2025</name>
  </metadata>
  <trk>
    <name><![CDATA[25,6km Lucas 2025-20492157]]></name>
    <trkseg>
      <trkpt lat="45.61777" lon="4.42116">
        <ele>469</ele>
        <time>2025-02-03T10:05:53Z</time>
      </trkpt>
      <trkpt lat="45.61778" lon="4.42116">
        <ele>469</ele>
        <time>2025-02-03T10:05:54Z</time>
      </trkpt>
      <trkpt lat="45.61804" lon="4.42193">
        <ele>469</ele>
        <time>2025-02-03T10:07:14Z</time>
      </trkpt>
      <trkpt lat="45.61792" lon="4.42205">
        <ele>469</ele>
        <time>2025-02-03T10:07:34Z</time>
      </trkpt>
      <trkpt lat="45.61781" lon="4.4222">
        <ele>469</ele>
        <time>2025-02-03T10:07:54Z</time>
      </trkpt>
      <trkpt lat="45.61773" lon="4.42233">
        <ele>469</ele>
        <time>2025-02-03T10:08:10Z</time>
      </trkpt>
      <trkpt lat="45.61771" lon="4.42237">
        <ele>469</ele>
        <time>2025-02-03T10:08:15Z</time>
      </trkpt>
      <trkpt lat="45.61787" lon="4.42257">
        <ele>469</ele>
        <time>2025-02-03T10:08:43Z</time>
      </trkpt>
      <trkpt lat="45.61809" lon="4.42271">
        <ele>470</ele>
        <time>2025-02-03T10:09:15Z</time>
      </trkpt>
      <trkpt lat="45.61838" lon="4.42274">
        <ele>470</ele>
        <time>2025-02-03T10:09:54Z</time>
      </trkpt>
      <trkpt lat="45.61893" lon="4.42287">
        <ele>471</ele>
        <time>2025-02-03T10:11:08Z</time>
      </trkpt>
      <trkpt lat="45.61948" lon="4.42304">
        <ele>473</ele>
        <time>2025-02-03T10:12:24Z</time>
      </trkpt>
      <trkpt lat="45.61991" lon="4.42299">
        <ele>476</ele>
        <time>2025-02-03T10:13:21Z</time>
      </trkpt>
      <trkpt lat="45.62024" lon="4.42288">
        <ele>479</ele>
        <time>2025-02-03T10:14:06Z</time>
      </trkpt>
      <trkpt lat="45.62052" lon="4.42271">
        <ele>482</ele>
        <time>2025-02-03T10:14:47Z</time>
      </trkpt>
      <trkpt lat="45.62083" lon="4.42274">
        <ele>484</ele>
        <time>2025-02-03T10:15:28Z</time>
      </trkpt>
      <trkpt lat="45.62147" lon="4.423">
        <ele>483</ele>
        <time>2025-02-03T10:16:57Z</time>
      </trkpt>
      <trkpt lat="45.62182" lon="4.42295">
        <ele>484</ele>
        <time>2025-02-03T10:17:44Z</time>
      </trkpt>
      <trkpt lat="45.62234" lon="4.42268">
        <ele>487</ele>
        <time>2025-02-03T10:18:58Z</time>
      </trkpt>
      <trkpt lat="45.62306" lon="4.42265">
        <ele>488</ele>
        <time>2025-02-03T10:20:34Z</time>
      </trkpt>
      <trkpt lat="45.62351" lon="4.42269">
        <ele>489</ele>
        <time>2025-02-03T10:21:34Z</time>
      </trkpt>
      <trkpt lat="45.62347" lon="4.42259">
        <ele>490</ele>
        <time>2025-02-03T10:21:45Z</time>
      </trkpt>
      <trkpt lat="45.62351" lon="4.42269">
        <ele>489</ele>
        <time>2025-02-03T10:21:56Z</time>
      </trkpt>
      <trkpt lat="45.62372" lon="4.42277">
        <ele>489</ele>
        <time>2025-02-03T10:22:25Z</time>
      </trkpt>
      <trkpt lat="45.62385" lon="4.42289">
        <ele>489</ele>
        <time>2025-02-03T10:22:45Z</time>
      </trkpt>
      <trkpt lat="45.62397" lon="4.42308">
        <ele>488</ele>
        <time>2025-02-03T10:23:09Z</time>
      </trkpt>
      <trkpt lat="45.62417" lon="4.42335">
        <ele>488</ele>
        <time>2025-02-03T10:23:46Z</time>
      </trkpt>
      <trkpt lat="45.62478" lon="4.42412">
        <ele>489</ele>
        <time>2025-02-03T10:25:35Z</time>
      </trkpt>
      <trkpt lat="45.62483" lon="4.42421">
        <ele>489</ele>
        <time>2025-02-03T10:25:45Z</time>
      </trkpt>
      <trkpt lat="45.62487" lon="4.42432">
        <ele>489</ele>
        <time>2025-02-03T10:25:57Z</time>
      </trkpt>
      <trkpt lat="45.62502" lon="4.42492">
        <ele>487</ele>
        <time>2025-02-03T10:26:56Z</time>
      </trkpt>
      <trkpt lat="45.62513" lon="4.42526">
        <ele>486</ele>
        <time>2025-02-03T10:27:31Z</time>
      </trkpt>
      <trkpt lat="45.62515" lon="4.42544">
        <ele>485</ele>
        <time>2025-02-03T10:27:48Z</time>
      </trkpt>
      <trkpt lat="45.62521" lon="4.42627">
        <ele>483</ele>
        <time>2025-02-03T10:29:06Z</time>
      </trkpt>
      <trkpt lat="45.62531" lon="4.4272">
        <ele>485</ele>
        <time>2025-02-03T10:30:34Z</time>
      </trkpt>
      <trkpt lat="45.62534" lon="4.42757">
        <ele>486</ele>
        <time>2025-02-03T10:31:09Z</time>
      </trkpt>
      <trkpt lat="45.62543" lon="4.42788">
        <ele>489</ele>
        <time>2025-02-03T10:31:40Z</time>
      </trkpt>
      <trkpt lat="45.62582" lon="4.4283">
        <ele>494</ele>
        <time>2025-02-03T10:32:45Z</time>
      </trkpt>
      <trkpt lat="45.62582" lon="4.42831">
        <ele>494</ele>
        <time>2025-02-03T10:32:46Z</time>
      </trkpt>
      <trkpt lat="45.62582" lon="4.42831">
        <ele>494</ele>
        <time>2025-02-03T10:32:46Z</time>
      </trkpt>
      <trkpt lat="45.62591" lon="4.42943">
        <ele>499</ele>
        <time>2025-02-03T10:34:31Z</time>
      </trkpt>
      <trkpt lat="45.62594" lon="4.43012">
        <ele>503</ele>
        <time>2025-02-03T10:35:36Z</time>
      </trkpt>
      <trkpt lat="45.62599" lon="4.43082">
        <ele>504</ele>
        <time>2025-02-03T10:36:42Z</time>
      </trkpt>
      <trkpt lat="45.62595" lon="4.4316">
        <ele>505</ele>
        <time>2025-02-03T10:37:54Z</time>
      </trkpt>
      <trkpt lat="45.626" lon="4.43155">
        <ele>505</ele>
        <time>2025-02-03T10:38:03Z</time>
      </trkpt>
      <trkpt lat="45.62595" lon="4.4316">
        <ele>505</ele>
        <time>2025-02-03T10:38:11Z</time>
      </trkpt>
      <trkpt lat="45.62547" lon="4.43365">
        <ele>502</ele>
        <time>2025-02-03T10:41:33Z</time>
      </trkpt>
      <trkpt lat="45.62523" lon="4.43424">
        <ele>502</ele>
        <time>2025-02-03T10:42:36Z</time>
      </trkpt>
      <trkpt lat="45.62503" lon="4.43479">
        <ele>500</ele>
        <time>2025-02-03T10:43:34Z</time>
      </trkpt>
      <trkpt lat="45.62471" lon="4.43555">
        <ele>495</ele>
        <time>2025-02-03T10:44:57Z</time>
      </trkpt>
      <trkpt lat="45.62462" lon="4.43584">
        <ele>495</ele>
        <time>2025-02-03T10:45:26Z</time>
      </trkpt>
      <trkpt lat="45.62456" lon="4.43623">
        <ele>495</ele>
        <time>2025-02-03T10:46:04Z</time>
      </trkpt>
      <trkpt lat="45.62433" lon="4.43694">
        <ele>494</ele>
        <time>2025-02-03T10:47:17Z</time>
      </trkpt>
      <trkpt lat="45.62418" lon="4.43752">
        <ele>494</ele>
        <time>2025-02-03T10:48:14Z</time>
      </trkpt>
      <trkpt lat="45.62403" lon="4.43825">
        <ele>493</ele>
        <time>2025-02-03T10:49:26Z</time>
      </trkpt>
      <trkpt lat="45.62382" lon="4.43956">
        <ele>493</ele>
        <time>2025-02-03T10:51:31Z</time>
      </trkpt>
      <trkpt lat="45.62381" lon="4.44007">
        <ele>493</ele>
        <time>2025-02-03T10:52:19Z</time>
      </trkpt>
      <trkpt lat="45.62391" lon="4.44058">
        <ele>494</ele>
        <time>2025-02-03T10:53:08Z</time>
      </trkpt>
      <trkpt lat="45.624" lon="4.44148">
        <ele>497</ele>
        <time>2025-02-03T10:54:33Z</time>
      </trkpt>
      <trkpt lat="45.62401" lon="4.44165">
        <ele>497</ele>
        <time>2025-02-03T10:54:49Z</time>
      </trkpt>
      <trkpt lat="45.62399" lon="4.4419">
        <ele>498</ele>
        <time>2025-02-03T10:55:12Z</time>
      </trkpt>
      <trkpt lat="45.62395" lon="4.44207">
        <ele>498</ele>
        <time>2025-02-03T10:55:29Z</time>
      </trkpt>
      <trkpt lat="45.62381" lon="4.44243">
        <ele>498</ele>
        <time>2025-02-03T10:56:07Z</time>
      </trkpt>
      <trkpt lat="45.62351" lon="4.44315">
        <ele>496</ele>
        <time>2025-02-03T10:57:26Z</time>
      </trkpt>
      <trkpt lat="45.62338" lon="4.44355">
        <ele>495</ele>
        <time>2025-02-03T10:58:07Z</time>
      </trkpt>
      <trkpt lat="45.62335" lon="4.44376">
        <ele>495</ele>
        <time>2025-02-03T10:58:27Z</time>
      </trkpt>
      <trkpt lat="45.62328" lon="4.44436">
        <ele>497</ele>
        <time>2025-02-03T10:59:24Z</time>
      </trkpt>
      <trkpt lat="45.62324" lon="4.44441">
        <ele>496</ele>
        <time>2025-02-03T10:59:31Z</time>
      </trkpt>
      <trkpt lat="45.62311" lon="4.44463">
        <ele>495</ele>
        <time>2025-02-03T10:59:58Z</time>
      </trkpt>
      <trkpt lat="45.62306" lon="4.4447">
        <ele>495</ele>
        <time>2025-02-03T11:00:07Z</time>
      </trkpt>
      <trkpt lat="45.62304" lon="4.44468">
        <ele>495</ele>
        <time>2025-02-03T11:00:10Z</time>
      </trkpt>
      <trkpt lat="45.62306" lon="4.4447">
        <ele>495</ele>
        <time>2025-02-03T11:00:13Z</time>
      </trkpt>
      <trkpt lat="45.62385" lon="4.44579">
        <ele>500</ele>
        <time>2025-02-03T11:02:40Z</time>
      </trkpt>
      <trkpt lat="45.62394" lon="4.44596">
        <ele>502</ele>
        <time>2025-02-03T11:03:00Z</time>
      </trkpt>
      <trkpt lat="45.62398" lon="4.44612">
        <ele>503</ele>
        <time>2025-02-03T11:03:16Z</time>
      </trkpt>
      <trkpt lat="45.62399" lon="4.44629">
        <ele>505</ele>
        <time>2025-02-03T11:03:32Z</time>
      </trkpt>
      <trkpt lat="45.62398" lon="4.44646">
        <ele>507</ele>
        <time>2025-02-03T11:03:47Z</time>
      </trkpt>
      <trkpt lat="45.62405" lon="4.44646">
        <ele>507</ele>
        <time>2025-02-03T11:03:57Z</time>
      </trkpt>
      <trkpt lat="45.62453" lon="4.44648">
        <ele>510</ele>
        <time>2025-02-03T11:05:01Z</time>
      </trkpt>
      <trkpt lat="45.62463" lon="4.44651">
        <ele>511</ele>
        <time>2025-02-03T11:05:15Z</time>
      </trkpt>
      <trkpt lat="45.6247" lon="4.44653">
        <ele>511</ele>
        <time>2025-02-03T11:05:24Z</time>
      </trkpt>
      <trkpt lat="45.62488" lon="4.44652">
        <ele>512</ele>
        <time>2025-02-03T11:05:48Z</time>
      </trkpt>
      <trkpt lat="45.62522" lon="4.44642">
        <ele>513</ele>
        <time>2025-02-03T11:06:34Z</time>
      </trkpt>
      <trkpt lat="45.62541" lon="4.44641">
        <ele>515</ele>
        <time>2025-02-03T11:07:00Z</time>
      </trkpt>
      <trkpt lat="45.62568" lon="4.44661">
        <ele>517</ele>
        <time>2025-02-03T11:07:40Z</time>
      </trkpt>
      <trkpt lat="45.62582" lon="4.44669">
        <ele>518</ele>
        <time>2025-02-03T11:08:01Z</time>
      </trkpt>
      <trkpt lat="45.62597" lon="4.4469">
        <ele>525</ele>
        <time>2025-02-03T11:08:29Z</time>
      </trkpt>
      <trkpt lat="45.62644" lon="4.44757">
        <ele>533</ele>
        <time>2025-02-03T11:09:57Z</time>
      </trkpt>
      <trkpt lat="45.62683" lon="4.44805">
        <ele>539</ele>
        <time>2025-02-03T11:11:06Z</time>
      </trkpt>
      <trkpt lat="45.62705" lon="4.44822">
        <ele>540</ele>
        <time>2025-02-03T11:11:39Z</time>
      </trkpt>
      <trkpt lat="45.62726" lon="4.44839">
        <ele>540</ele>
        <time>2025-02-03T11:12:11Z</time>
      </trkpt>
      <trkpt lat="45.62745" lon="4.44843">
        <ele>540</ele>
        <time>2025-02-03T11:12:37Z</time>
      </trkpt>
      <trkpt lat="45.62761" lon="4.44841">
        <ele>539</ele>
        <time>2025-02-03T11:12:58Z</time>
      </trkpt>
      <trkpt lat="45.62788" lon="4.44829">
        <ele>538</ele>
        <time>2025-02-03T11:13:36Z</time>
      </trkpt>
      <trkpt lat="45.62798" lon="4.44822">
        <ele>539</ele>
        <time>2025-02-03T11:13:51Z</time>
      </trkpt>
      <trkpt lat="45.62824" lon="4.44799">
        <ele>543</ele>
        <time>2025-02-03T11:14:32Z</time>
      </trkpt>
      <trkpt lat="45.62842" lon="4.44812">
        <ele>542</ele>
        <time>2025-02-03T11:14:59Z</time>
      </trkpt>
      <trkpt lat="45.62853" lon="4.44831">
        <ele>540</ele>
        <time>2025-02-03T11:15:22Z</time>
      </trkpt>
      <trkpt lat="45.62861" lon="4.44859">
        <ele>542</ele>
        <time>2025-02-03T11:15:50Z</time>
      </trkpt>
      <trkpt lat="45.62868" lon="4.44921">
        <ele>545</ele>
        <time>2025-02-03T11:16:49Z</time>
      </trkpt>
      <trkpt lat="45.6287" lon="4.4498">
        <ele>547</ele>
        <time>2025-02-03T11:17:44Z</time>
      </trkpt>
      <trkpt lat="45.62888" lon="4.45029">
        <ele>547</ele>
        <time>2025-02-03T11:18:35Z</time>
      </trkpt>
      <trkpt lat="45.62917" lon="4.45056">
        <ele>547</ele>
        <time>2025-02-03T11:19:21Z</time>
      </trkpt>
      <trkpt lat="45.62966" lon="4.45096">
        <ele>549</ele>
        <time>2025-02-03T11:20:37Z</time>
      </trkpt>
      <trkpt lat="45.62978" lon="4.45118">
        <ele>550</ele>
        <time>2025-02-03T11:21:03Z</time>
      </trkpt>
      <trkpt lat="45.6298" lon="4.45126">
        <ele>551</ele>
        <time>2025-02-03T11:21:11Z</time>
      </trkpt>
      <trkpt lat="45.62991" lon="4.45166">
        <ele>553</ele>
        <time>2025-02-03T11:21:51Z</time>
      </trkpt>
      <trkpt lat="45.63036" lon="4.45218">
        <ele>556</ele>
        <time>2025-02-03T11:23:08Z</time>
      </trkpt>
      <trkpt lat="45.63042" lon="4.45233">
        <ele>557</ele>
        <time>2025-02-03T11:23:24Z</time>
      </trkpt>
      <trkpt lat="45.63055" lon="4.45242">
        <ele>557</ele>
        <time>2025-02-03T11:23:43Z</time>
      </trkpt>
      <trkpt lat="45.63078" lon="4.45253">
        <ele>556</ele>
        <time>2025-02-03T11:24:16Z</time>
      </trkpt>
      <trkpt lat="45.63099" lon="4.45265">
        <ele>558</ele>
        <time>2025-02-03T11:24:46Z</time>
      </trkpt>
      <trkpt lat="45.63108" lon="4.45274">
        <ele>560</ele>
        <time>2025-02-03T11:25:01Z</time>
      </trkpt>
      <trkpt lat="45.63114" lon="4.45283">
        <ele>562</ele>
        <time>2025-02-03T11:25:12Z</time>
      </trkpt>
      <trkpt lat="45.63121" lon="4.45286">
        <ele>563</ele>
        <time>2025-02-03T11:25:22Z</time>
      </trkpt>
      <trkpt lat="45.63159" lon="4.45303">
        <ele>569</ele>
        <time>2025-02-03T11:26:15Z</time>
      </trkpt>
      <trkpt lat="45.63165" lon="4.45305">
        <ele>570</ele>
        <time>2025-02-03T11:26:23Z</time>
      </trkpt>
      <trkpt lat="45.63172" lon="4.45296">
        <ele>569</ele>
        <time>2025-02-03T11:26:36Z</time>
      </trkpt>
      <trkpt lat="45.63181" lon="4.45285">
        <ele>567</ele>
        <time>2025-02-03T11:26:52Z</time>
      </trkpt>
      <trkpt lat="45.63186" lon="4.45284">
        <ele>568</ele>
        <time>2025-02-03T11:26:58Z</time>
      </trkpt>
      <trkpt lat="45.63192" lon="4.45275">
        <ele>566</ele>
        <time>2025-02-03T11:27:10Z</time>
      </trkpt>
      <trkpt lat="45.63194" lon="4.45273">
        <ele>566</ele>
        <time>2025-02-03T11:27:13Z</time>
      </trkpt>
      <trkpt lat="45.63194" lon="4.45273">
        <ele>566</ele>
        <time>2025-02-03T11:27:13Z</time>
      </trkpt>
      <trkpt lat="45.63195" lon="4.45274">
        <ele>566</ele>
        <time>2025-02-03T11:27:15Z</time>
      </trkpt>
      <trkpt lat="45.63197" lon="4.45276">
        <ele>567</ele>
        <time>2025-02-03T11:27:18Z</time>
      </trkpt>
      <trkpt lat="45.63199" lon="4.45272">
        <ele>566</ele>
        <time>2025-02-03T11:27:23Z</time>
      </trkpt>
      <trkpt lat="45.63205" lon="4.45266">
        <ele>565</ele>
        <time>2025-02-03T11:27:33Z</time>
      </trkpt>
      <trkpt lat="45.63221" lon="4.45258">
        <ele>565</ele>
        <time>2025-02-03T11:27:55Z</time>
      </trkpt>
      <trkpt lat="45.63241" lon="4.45251">
        <ele>565</ele>
        <time>2025-02-03T11:28:23Z</time>
      </trkpt>
      <trkpt lat="45.63242" lon="4.45251">
        <ele>565</ele>
        <time>2025-02-03T11:28:24Z</time>
      </trkpt>
      <trkpt lat="45.633" lon="4.45328">
        <ele>574</ele>
        <time>2025-02-03T11:30:10Z</time>
      </trkpt>
      <trkpt lat="45.63329" lon="4.45365">
        <ele>571</ele>
        <time>2025-02-03T11:31:01Z</time>
      </trkpt>
      <trkpt lat="45.63339" lon="4.45367">
        <ele>570</ele>
        <time>2025-02-03T11:31:15Z</time>
      </trkpt>
      <trkpt lat="45.63343" lon="4.45364">
        <ele>570</ele>
        <time>2025-02-03T11:31:21Z</time>
      </trkpt>
      <trkpt lat="45.63356" lon="4.45353">
        <ele>570</ele>
        <time>2025-02-03T11:31:41Z</time>
      </trkpt>
      <trkpt lat="45.63359" lon="4.45339">
        <ele>569</ele>
        <time>2025-02-03T11:31:55Z</time>
      </trkpt>
      <trkpt lat="45.63361" lon="4.45333">
        <ele>569</ele>
        <time>2025-02-03T11:32:01Z</time>
      </trkpt>
      <trkpt lat="45.6336" lon="4.45331">
        <ele>569</ele>
        <time>2025-02-03T11:32:03Z</time>
      </trkpt>
      <trkpt lat="45.63422" lon="4.45375">
        <ele>572</ele>
        <time>2025-02-03T11:33:36Z</time>
      </trkpt>
      <trkpt lat="45.63422" lon="4.45498">
        <ele>571</ele>
        <time>2025-02-03T11:35:30Z</time>
      </trkpt>
      <trkpt lat="45.63461" lon="4.45523">
        <ele>573</ele>
        <time>2025-02-03T11:36:27Z</time>
      </trkpt>
      <trkpt lat="45.63474" lon="4.45508">
        <ele>573</ele>
        <time>2025-02-03T11:36:50Z</time>
      </trkpt>
      <trkpt lat="45.63499" lon="4.45484">
        <ele>574</ele>
        <time>2025-02-03T11:37:30Z</time>
      </trkpt>
      <trkpt lat="45.63521" lon="4.45467">
        <ele>577</ele>
        <time>2025-02-03T11:38:03Z</time>
      </trkpt>
      <trkpt lat="45.63537" lon="4.45466">
        <ele>578</ele>
        <time>2025-02-03T11:38:25Z</time>
      </trkpt>
      <trkpt lat="45.63554" lon="4.45474">
        <ele>578</ele>
        <time>2025-02-03T11:38:49Z</time>
      </trkpt>
      <trkpt lat="45.63567" lon="4.45485">
        <ele>578</ele>
        <time>2025-02-03T11:39:09Z</time>
      </trkpt>
      <trkpt lat="45.63575" lon="4.45501">
        <ele>577</ele>
        <time>2025-02-03T11:39:27Z</time>
      </trkpt>
      <trkpt lat="45.6358" lon="4.45525">
        <ele>577</ele>
        <time>2025-02-03T11:39:50Z</time>
      </trkpt>
      <trkpt lat="45.63584" lon="4.45559">
        <ele>577</ele>
        <time>2025-02-03T11:40:23Z</time>
      </trkpt>
      <trkpt lat="45.63591" lon="4.45579">
        <ele>577</ele>
        <time>2025-02-03T11:40:43Z</time>
      </trkpt>
      <trkpt lat="45.636" lon="4.45598">
        <ele>578</ele>
        <time>2025-02-03T11:41:05Z</time>
      </trkpt>
      <trkpt lat="45.63623" lon="4.45635">
        <ele>580</ele>
        <time>2025-02-03T11:41:51Z</time>
      </trkpt>
      <trkpt lat="45.63635" lon="4.45657">
        <ele>580</ele>
        <time>2025-02-03T11:42:17Z</time>
      </trkpt>
      <trkpt lat="45.6364" lon="4.4567">
        <ele>580</ele>
        <time>2025-02-03T11:42:31Z</time>
      </trkpt>
      <trkpt lat="45.63642" lon="4.45675">
        <ele>580</ele>
        <time>2025-02-03T11:42:36Z</time>
      </trkpt>
      <trkpt lat="45.63666" lon="4.45774">
        <ele>586</ele>
        <time>2025-02-03T11:44:14Z</time>
      </trkpt>
      <trkpt lat="45.63781" lon="4.45735">
        <ele>598</ele>
        <time>2025-02-03T11:46:52Z</time>
      </trkpt>
      <trkpt lat="45.63786" lon="4.45734">
        <ele>598</ele>
        <time>2025-02-03T11:46:59Z</time>
      </trkpt>
      <trkpt lat="45.6382" lon="4.45727">
        <ele>601</ele>
        <time>2025-02-03T11:47:44Z</time>
      </trkpt>
      <trkpt lat="45.63827" lon="4.45722">
        <ele>601</ele>
        <time>2025-02-03T11:47:55Z</time>
      </trkpt>
      <trkpt lat="45.63899" lon="4.45693">
        <ele>609</ele>
        <time>2025-02-03T11:49:35Z</time>
      </trkpt>
      <trkpt lat="45.63966" lon="4.45685">
        <ele>610</ele>
        <time>2025-02-03T11:51:04Z</time>
      </trkpt>
      <trkpt lat="45.64046" lon="4.45876">
        <ele>621</ele>
        <time>2025-02-03T11:54:32Z</time>
      </trkpt>
      <trkpt lat="45.64048" lon="4.45874">
        <ele>621</ele>
        <time>2025-02-03T11:54:35Z</time>
      </trkpt>
      <trkpt lat="45.64063" lon="4.4586">
        <ele>620</ele>
        <time>2025-02-03T11:54:59Z</time>
      </trkpt>
      <trkpt lat="45.64083" lon="4.45834">
        <ele>619</ele>
        <time>2025-02-03T11:55:35Z</time>
      </trkpt>
      <trkpt lat="45.64143" lon="4.45799">
        <ele>618</ele>
        <time>2025-02-03T11:57:02Z</time>
      </trkpt>
      <trkpt lat="45.64159" lon="4.45787">
        <ele>618</ele>
        <time>2025-02-03T11:57:26Z</time>
      </trkpt>
      <trkpt lat="45.64177" lon="4.45779">
        <ele>618</ele>
        <time>2025-02-03T11:57:51Z</time>
      </trkpt>
      <trkpt lat="45.64228" lon="4.4577">
        <ele>618</ele>
        <time>2025-02-03T11:59:00Z</time>
      </trkpt>
      <trkpt lat="45.64244" lon="4.45763">
        <ele>618</ele>
        <time>2025-02-03T11:59:22Z</time>
      </trkpt>
      <trkpt lat="45.6433" lon="4.45678">
        <ele>613</ele>
        <time>2025-02-03T12:01:41Z</time>
      </trkpt>
      <trkpt lat="45.6436" lon="4.45669">
        <ele>611</ele>
        <time>2025-02-03T12:02:22Z</time>
      </trkpt>
      <trkpt lat="45.6438" lon="4.45668">
        <ele>609</ele>
        <time>2025-02-03T12:02:49Z</time>
      </trkpt>
      <trkpt lat="45.64412" lon="4.45669">
        <ele>608</ele>
        <time>2025-02-03T12:03:32Z</time>
      </trkpt>
      <trkpt lat="45.64466" lon="4.45691">
        <ele>608</ele>
        <time>2025-02-03T12:04:47Z</time>
      </trkpt>
      <trkpt lat="45.64484" lon="4.45697">
        <ele>607</ele>
        <time>2025-02-03T12:05:11Z</time>
      </trkpt>
      <trkpt lat="45.64493" lon="4.45713">
        <ele>608</ele>
        <time>2025-02-03T12:05:31Z</time>
      </trkpt>
      <trkpt lat="45.64495" lon="4.45716">
        <ele>608</ele>
        <time>2025-02-03T12:05:34Z</time>
      </trkpt>
      <trkpt lat="45.645" lon="4.45735">
        <ele>608</ele>
        <time>2025-02-03T12:05:53Z</time>
      </trkpt>
      <trkpt lat="45.64498" lon="4.45751">
        <ele>609</ele>
        <time>2025-02-03T12:06:09Z</time>
      </trkpt>
      <trkpt lat="45.64493" lon="4.45764">
        <ele>610</ele>
        <time>2025-02-03T12:06:22Z</time>
      </trkpt>
      <trkpt lat="45.64487" lon="4.45777">
        <ele>611</ele>
        <time>2025-02-03T12:06:37Z</time>
      </trkpt>
      <trkpt lat="45.64481" lon="4.45794">
        <ele>613</ele>
        <time>2025-02-03T12:06:55Z</time>
      </trkpt>
      <trkpt lat="45.64475" lon="4.45805">
        <ele>614</ele>
        <time>2025-02-03T12:07:08Z</time>
      </trkpt>
      <trkpt lat="45.64469" lon="4.45828">
        <ele>616</ele>
        <time>2025-02-03T12:07:31Z</time>
      </trkpt>
      <trkpt lat="45.64467" lon="4.45846">
        <ele>617</ele>
        <time>2025-02-03T12:07:48Z</time>
      </trkpt>
      <trkpt lat="45.64468" lon="4.45857">
        <ele>617</ele>
        <time>2025-02-03T12:07:58Z</time>
      </trkpt>
      <trkpt lat="45.64469" lon="4.45902">
        <ele>619</ele>
        <time>2025-02-03T12:08:40Z</time>
      </trkpt>
      <trkpt lat="45.64468" lon="4.45909">
        <ele>619</ele>
        <time>2025-02-03T12:08:47Z</time>
      </trkpt>
      <trkpt lat="45.64466" lon="4.4591">
        <ele>619</ele>
        <time>2025-02-03T12:08:49Z</time>
      </trkpt>
      <trkpt lat="45.64465" lon="4.45911">
        <ele>620</ele>
        <time>2025-02-03T12:08:51Z</time>
      </trkpt>
      <trkpt lat="45.64356" lon="4.45909">
        <ele>628</ele>
        <time>2025-02-03T12:11:17Z</time>
      </trkpt>
      <trkpt lat="45.64352" lon="4.45917">
        <ele>629</ele>
        <time>2025-02-03T12:11:26Z</time>
      </trkpt>
      <trkpt lat="45.64352" lon="4.4593">
        <ele>630</ele>
        <time>2025-02-03T12:11:38Z</time>
      </trkpt>
      <trkpt lat="45.64353" lon="4.45944">
        <ele>630</ele>
        <time>2025-02-03T12:11:51Z</time>
      </trkpt>
      <trkpt lat="45.64349" lon="4.45974">
        <ele>632</ele>
        <time>2025-02-03T12:12:19Z</time>
      </trkpt>
      <trkpt lat="45.64339" lon="4.4601">
        <ele>633</ele>
        <time>2025-02-03T12:12:56Z</time>
      </trkpt>
      <trkpt lat="45.64331" lon="4.46064">
        <ele>634</ele>
        <time>2025-02-03T12:13:47Z</time>
      </trkpt>
      <trkpt lat="45.64315" lon="4.46125">
        <ele>635</ele>
        <time>2025-02-03T12:14:48Z</time>
      </trkpt>
      <trkpt lat="45.64311" lon="4.46137">
        <ele>635</ele>
        <time>2025-02-03T12:15:00Z</time>
      </trkpt>
      <trkpt lat="45.64331" lon="4.46144">
        <ele>636</ele>
        <time>2025-02-03T12:15:28Z</time>
      </trkpt>
      <trkpt lat="45.64341" lon="4.46145">
        <ele>637</ele>
        <time>2025-02-03T12:15:41Z</time>
      </trkpt>
      <trkpt lat="45.6437" lon="4.4614">
        <ele>638</ele>
        <time>2025-02-03T12:16:20Z</time>
      </trkpt>
      <trkpt lat="45.64375" lon="4.46138">
        <ele>638</ele>
        <time>2025-02-03T12:16:27Z</time>
      </trkpt>
      <trkpt lat="45.64386" lon="4.46136">
        <ele>639</ele>
        <time>2025-02-03T12:16:42Z</time>
      </trkpt>
      <trkpt lat="45.64414" lon="4.46131">
        <ele>640</ele>
        <time>2025-02-03T12:17:19Z</time>
      </trkpt>
      <trkpt lat="45.64431" lon="4.46131">
        <ele>640</ele>
        <time>2025-02-03T12:17:42Z</time>
      </trkpt>
      <trkpt lat="45.64434" lon="4.46131">
        <ele>640</ele>
        <time>2025-02-03T12:17:46Z</time>
      </trkpt>
      <trkpt lat="45.64475" lon="4.4614">
        <ele>640</ele>
        <time>2025-02-03T12:18:42Z</time>
      </trkpt>
      <trkpt lat="45.64491" lon="4.46145">
        <ele>640</ele>
        <time>2025-02-03T12:19:03Z</time>
      </trkpt>
      <trkpt lat="45.64523" lon="4.46144">
        <ele>639</ele>
        <time>2025-02-03T12:19:46Z</time>
      </trkpt>
      <trkpt lat="45.64579" lon="4.46144">
        <ele>636</ele>
        <time>2025-02-03T12:21:01Z</time>
      </trkpt>
      <trkpt lat="45.64595" lon="4.46154">
        <ele>637</ele>
        <time>2025-02-03T12:21:24Z</time>
      </trkpt>
      <trkpt lat="45.64614" lon="4.46169">
        <ele>637</ele>
        <time>2025-02-03T12:21:53Z</time>
      </trkpt>
      <trkpt lat="45.64645" lon="4.46183">
        <ele>637</ele>
        <time>2025-02-03T12:22:36Z</time>
      </trkpt>
      <trkpt lat="45.64665" lon="4.46194">
        <ele>637</ele>
        <time>2025-02-03T12:23:05Z</time>
      </trkpt>
      <trkpt lat="45.64694" lon="4.46215">
        <ele>635</ele>
        <time>2025-02-03T12:23:48Z</time>
      </trkpt>
      <trkpt lat="45.64727" lon="4.46244">
        <ele>635</ele>
        <time>2025-02-03T12:24:40Z</time>
      </trkpt>
      <trkpt lat="45.64761" lon="4.46278">
        <ele>635</ele>
        <time>2025-02-03T12:25:35Z</time>
      </trkpt>
      <trkpt lat="45.64812" lon="4.46332">
        <ele>636</ele>
        <time>2025-02-03T12:27:00Z</time>
      </trkpt>
      <trkpt lat="45.64849" lon="4.46371">
        <ele>633</ele>
        <time>2025-02-03T12:28:01Z</time>
      </trkpt>
      <trkpt lat="45.64858" lon="4.46388">
        <ele>633</ele>
        <time>2025-02-03T12:28:21Z</time>
      </trkpt>
      <trkpt lat="45.64864" lon="4.46413">
        <ele>633</ele>
        <time>2025-02-03T12:28:46Z</time>
      </trkpt>
      <trkpt lat="45.64871" lon="4.46434">
        <ele>634</ele>
        <time>2025-02-03T12:29:08Z</time>
      </trkpt>
      <trkpt lat="45.64884" lon="4.46443">
        <ele>634</ele>
        <time>2025-02-03T12:29:27Z</time>
      </trkpt>
      <trkpt lat="45.64896" lon="4.46445">
        <ele>633</ele>
        <time>2025-02-03T12:29:43Z</time>
      </trkpt>
      <trkpt lat="45.64912" lon="4.46442">
        <ele>632</ele>
        <time>2025-02-03T12:30:05Z</time>
      </trkpt>
      <trkpt lat="45.6493" lon="4.46443">
        <ele>631</ele>
        <time>2025-02-03T12:30:29Z</time>
      </trkpt>
      <trkpt lat="45.64947" lon="4.46447">
        <ele>629</ele>
        <time>2025-02-03T12:30:52Z</time>
      </trkpt>
      <trkpt lat="45.64963" lon="4.46465">
        <ele>630</ele>
        <time>2025-02-03T12:31:19Z</time>
      </trkpt>
      <trkpt lat="45.64985" lon="4.46497">
        <ele>632</ele>
        <time>2025-02-03T12:32:01Z</time>
      </trkpt>
      <trkpt lat="45.65003" lon="4.46534">
        <ele>635</ele>
        <time>2025-02-03T12:32:43Z</time>
      </trkpt>
      <trkpt lat="45.65022" lon="4.46555">
        <ele>634</ele>
        <time>2025-02-03T12:33:15Z</time>
      </trkpt>
      <trkpt lat="45.65047" lon="4.46561">
        <ele>629</ele>
        <time>2025-02-03T12:33:49Z</time>
      </trkpt>
      <trkpt lat="45.65069" lon="4.4656">
        <ele>624</ele>
        <time>2025-02-03T12:34:18Z</time>
      </trkpt>
      <trkpt lat="45.65072" lon="4.4656">
        <ele>623</ele>
        <time>2025-02-03T12:34:22Z</time>
      </trkpt>
      <trkpt lat="45.65069" lon="4.4656">
        <ele>624</ele>
        <time>2025-02-03T12:34:26Z</time>
      </trkpt>
      <trkpt lat="45.65068" lon="4.46579">
        <ele>625</ele>
        <time>2025-02-03T12:34:44Z</time>
      </trkpt>
      <trkpt lat="45.65075" lon="4.46635">
        <ele>626</ele>
        <time>2025-02-03T12:35:37Z</time>
      </trkpt>
      <trkpt lat="45.65072" lon="4.46646">
        <ele>627</ele>
        <time>2025-02-03T12:35:48Z</time>
      </trkpt>
      <trkpt lat="45.65072" lon="4.46671">
        <ele>629</ele>
        <time>2025-02-03T12:36:11Z</time>
      </trkpt>
      <trkpt lat="45.6507" lon="4.46695">
        <ele>630</ele>
        <time>2025-02-03T12:36:34Z</time>
      </trkpt>
      <trkpt lat="45.65075" lon="4.46742">
        <ele>633</ele>
        <time>2025-02-03T12:37:18Z</time>
      </trkpt>
      <trkpt lat="45.65086" lon="4.46752">
        <ele>632</ele>
        <time>2025-02-03T12:37:35Z</time>
      </trkpt>
      <trkpt lat="45.65101" lon="4.4676">
        <ele>631</ele>
        <time>2025-02-03T12:37:57Z</time>
      </trkpt>
      <trkpt lat="45.65112" lon="4.46764">
        <ele>631</ele>
        <time>2025-02-03T12:38:12Z</time>
      </trkpt>
      <trkpt lat="45.65119" lon="4.46774">
        <ele>631</ele>
        <time>2025-02-03T12:38:25Z</time>
      </trkpt>
      <trkpt lat="45.65127" lon="4.46791">
        <ele>633</ele>
        <time>2025-02-03T12:38:44Z</time>
      </trkpt>
      <trkpt lat="45.65128" lon="4.46812">
        <ele>636</ele>
        <time>2025-02-03T12:39:04Z</time>
      </trkpt>
      <trkpt lat="45.65125" lon="4.46829">
        <ele>638</ele>
        <time>2025-02-03T12:39:20Z</time>
      </trkpt>
      <trkpt lat="45.65119" lon="4.46846">
        <ele>640</ele>
        <time>2025-02-03T12:39:38Z</time>
      </trkpt>
      <trkpt lat="45.65125" lon="4.46846">
        <ele>640</ele>
        <time>2025-02-03T12:39:46Z</time>
      </trkpt>
      <trkpt lat="45.65119" lon="4.46846">
        <ele>640</ele>
        <time>2025-02-03T12:39:54Z</time>
      </trkpt>
      <trkpt lat="45.65116" lon="4.46847">
        <ele>640</ele>
        <time>2025-02-03T12:39:58Z</time>
      </trkpt>
      <trkpt lat="45.65102" lon="4.46855">
        <ele>641</ele>
        <time>2025-02-03T12:40:18Z</time>
      </trkpt>
      <trkpt lat="45.65084" lon="4.46872">
        <ele>643</ele>
        <time>2025-02-03T12:40:47Z</time>
      </trkpt>
      <trkpt lat="45.65077" lon="4.46886">
        <ele>645</ele>
        <time>2025-02-03T12:41:03Z</time>
      </trkpt>
      <trkpt lat="45.65073" lon="4.469">
        <ele>647</ele>
        <time>2025-02-03T12:41:17Z</time>
      </trkpt>
      <trkpt lat="45.65069" lon="4.46917">
        <ele>649</ele>
        <time>2025-02-03T12:41:34Z</time>
      </trkpt>
      <trkpt lat="45.65064" lon="4.46931">
        <ele>650</ele>
        <time>2025-02-03T12:41:49Z</time>
      </trkpt>
      <trkpt lat="45.65066" lon="4.46976">
        <ele>654</ele>
        <time>2025-02-03T12:42:31Z</time>
      </trkpt>
      <trkpt lat="45.65065" lon="4.46989">
        <ele>655</ele>
        <time>2025-02-03T12:42:43Z</time>
      </trkpt>
      <trkpt lat="45.65061" lon="4.47">
        <ele>657</ele>
        <time>2025-02-03T12:42:54Z</time>
      </trkpt>
      <trkpt lat="45.65024" lon="4.46968">
        <ele>655</ele>
        <time>2025-02-03T12:43:52Z</time>
      </trkpt>
      <trkpt lat="45.65012" lon="4.46996">
        <ele>657</ele>
        <time>2025-02-03T12:44:23Z</time>
      </trkpt>
      <trkpt lat="45.65001" lon="4.47015">
        <ele>658</ele>
        <time>2025-02-03T12:44:46Z</time>
      </trkpt>
      <trkpt lat="45.64973" lon="4.4704">
        <ele>657</ele>
        <time>2025-02-03T12:45:30Z</time>
      </trkpt>
      <trkpt lat="45.64948" lon="4.47071">
        <ele>655</ele>
        <time>2025-02-03T12:46:14Z</time>
      </trkpt>
      <trkpt lat="45.6493" lon="4.47102">
        <ele>653</ele>
        <time>2025-02-03T12:46:52Z</time>
      </trkpt>
      <trkpt lat="45.64922" lon="4.47133">
        <ele>652</ele>
        <time>2025-02-03T12:47:22Z</time>
      </trkpt>
      <trkpt lat="45.64921" lon="4.47144">
        <ele>651</ele>
        <time>2025-02-03T12:47:33Z</time>
      </trkpt>
      <trkpt lat="45.6492" lon="4.47159">
        <ele>651</ele>
        <time>2025-02-03T12:47:47Z</time>
      </trkpt>
      <trkpt lat="45.64934" lon="4.47202">
        <ele>648</ele>
        <time>2025-02-03T12:48:31Z</time>
      </trkpt>
      <trkpt lat="45.64948" lon="4.47277">
        <ele>644</ele>
        <time>2025-02-03T12:49:44Z</time>
      </trkpt>
      <trkpt lat="45.64945" lon="4.47294">
        <ele>642</ele>
        <time>2025-02-03T12:50:00Z</time>
      </trkpt>
      <trkpt lat="45.64937" lon="4.47308">
        <ele>640</ele>
        <time>2025-02-03T12:50:17Z</time>
      </trkpt>
      <trkpt lat="45.64918" lon="4.47328">
        <ele>637</ele>
        <time>2025-02-03T12:50:48Z</time>
      </trkpt>
      <trkpt lat="45.64907" lon="4.47362">
        <ele>636</ele>
        <time>2025-02-03T12:51:23Z</time>
      </trkpt>
      <trkpt lat="45.64901" lon="4.47401">
        <ele>637</ele>
        <time>2025-02-03T12:52:00Z</time>
      </trkpt>
      <trkpt lat="45.64896" lon="4.47424">
        <ele>638</ele>
        <time>2025-02-03T12:52:23Z</time>
      </trkpt>
      <trkpt lat="45.64921" lon="4.47502">
        <ele>643</ele>
        <time>2025-02-03T12:53:43Z</time>
      </trkpt>
      <trkpt lat="45.64927" lon="4.47549">
        <ele>649</ele>
        <time>2025-02-03T12:54:28Z</time>
      </trkpt>
      <trkpt lat="45.64936" lon="4.476">
        <ele>654</ele>
        <time>2025-02-03T12:55:17Z</time>
      </trkpt>
      <trkpt lat="45.64941" lon="4.47622">
        <ele>655</ele>
        <time>2025-02-03T12:55:38Z</time>
      </trkpt>
      <trkpt lat="45.64944" lon="4.47635">
        <ele>656</ele>
        <time>2025-02-03T12:55:51Z</time>
      </trkpt>
      <trkpt lat="45.64966" lon="4.47675">
        <ele>654</ele>
        <time>2025-02-03T12:56:38Z</time>
      </trkpt>
      <trkpt lat="45.64984" lon="4.47781">
        <ele>657</ele>
        <time>2025-02-03T12:58:20Z</time>
      </trkpt>
      <trkpt lat="45.65" lon="4.47808">
        <ele>655</ele>
        <time>2025-02-03T12:58:53Z</time>
      </trkpt>
      <trkpt lat="45.65012" lon="4.47832">
        <ele>654</ele>
        <time>2025-02-03T12:59:21Z</time>
      </trkpt>
      <trkpt lat="45.65037" lon="4.47869">
        <ele>653</ele>
        <time>2025-02-03T13:00:09Z</time>
      </trkpt>
      <trkpt lat="45.65054" lon="4.47909">
        <ele>652</ele>
        <time>2025-02-03T13:00:52Z</time>
      </trkpt>
      <trkpt lat="45.65064" lon="4.47941">
        <ele>654</ele>
        <time>2025-02-03T13:01:25Z</time>
      </trkpt>
      <trkpt lat="45.65077" lon="4.47978">
        <ele>658</ele>
        <time>2025-02-03T13:02:04Z</time>
      </trkpt>
      <trkpt lat="45.65088" lon="4.47995">
        <ele>660</ele>
        <time>2025-02-03T13:02:25Z</time>
      </trkpt>
      <trkpt lat="45.65104" lon="4.48021">
        <ele>662</ele>
        <time>2025-02-03T13:02:58Z</time>
      </trkpt>
      <trkpt lat="45.65132" lon="4.48048">
        <ele>663</ele>
        <time>2025-02-03T13:03:43Z</time>
      </trkpt>
      <trkpt lat="45.65166" lon="4.48048">
        <ele>662</ele>
        <time>2025-02-03T13:04:28Z</time>
      </trkpt>
      <trkpt lat="45.65201" lon="4.48095">
        <ele>670</ele>
        <time>2025-02-03T13:05:32Z</time>
      </trkpt>
      <trkpt lat="45.65207" lon="4.48113">
        <ele>672</ele>
        <time>2025-02-03T13:05:51Z</time>
      </trkpt>
      <trkpt lat="45.65209" lon="4.48118">
        <ele>673</ele>
        <time>2025-02-03T13:05:56Z</time>
      </trkpt>
      <trkpt lat="45.65245" lon="4.48112">
        <ele>675</ele>
        <time>2025-02-03T13:06:44Z</time>
      </trkpt>
      <trkpt lat="45.65307" lon="4.48121">
        <ele>672</ele>
        <time>2025-02-03T13:08:08Z</time>
      </trkpt>
      <trkpt lat="45.65372" lon="4.48141">
        <ele>670</ele>
        <time>2025-02-03T13:09:36Z</time>
      </trkpt>
      <trkpt lat="45.65417" lon="4.48145">
        <ele>665</ele>
        <time>2025-02-03T13:10:37Z</time>
      </trkpt>
      <trkpt lat="45.65442" lon="4.48144">
        <ele>664</ele>
        <time>2025-02-03T13:11:10Z</time>
      </trkpt>
      <trkpt lat="45.65472" lon="4.48133">
        <ele>662</ele>
        <time>2025-02-03T13:11:51Z</time>
      </trkpt>
      <trkpt lat="45.65506" lon="4.48098">
        <ele>662</ele>
        <time>2025-02-03T13:12:47Z</time>
      </trkpt>
      <trkpt lat="45.65545" lon="4.48044">
        <ele>665</ele>
        <time>2025-02-03T13:14:00Z</time>
      </trkpt>
      <trkpt lat="45.65552" lon="4.48013">
        <ele>666</ele>
        <time>2025-02-03T13:14:30Z</time>
      </trkpt>
      <trkpt lat="45.65558" lon="4.47967">
        <ele>667</ele>
        <time>2025-02-03T13:15:14Z</time>
      </trkpt>
      <trkpt lat="45.65542" lon="4.47883">
        <ele>667</ele>
        <time>2025-02-03T13:16:35Z</time>
      </trkpt>
      <trkpt lat="45.65523" lon="4.47826">
        <ele>668</ele>
        <time>2025-02-03T13:17:34Z</time>
      </trkpt>
      <trkpt lat="45.65506" lon="4.47809">
        <ele>669</ele>
        <time>2025-02-03T13:18:01Z</time>
      </trkpt>
      <trkpt lat="45.65503" lon="4.47806">
        <ele>669</ele>
        <time>2025-02-03T13:18:06Z</time>
      </trkpt>
      <trkpt lat="45.65506" lon="4.47809">
        <ele>669</ele>
        <time>2025-02-03T13:18:11Z</time>
      </trkpt>
      <trkpt lat="45.65526" lon="4.47807">
        <ele>668</ele>
        <time>2025-02-03T13:18:38Z</time>
      </trkpt>
      <trkpt lat="45.65551" lon="4.47809">
        <ele>668</ele>
        <time>2025-02-03T13:19:11Z</time>
      </trkpt>
      <trkpt lat="45.65574" lon="4.47812">
        <ele>667</ele>
        <time>2025-02-03T13:19:42Z</time>
      </trkpt>
      <trkpt lat="45.65595" lon="4.47827">
        <ele>665</ele>
        <time>2025-02-03T13:20:13Z</time>
      </trkpt>
      <trkpt lat="45.65617" lon="4.47848">
        <ele>665</ele>
        <time>2025-02-03T13:20:49Z</time>
      </trkpt>
      <trkpt lat="45.65653" lon="4.47894">
        <ele>666</ele>
        <time>2025-02-03T13:21:53Z</time>
      </trkpt>
      <trkpt lat="45.65701" lon="4.47947">
        <ele>667</ele>
        <time>2025-02-03T13:23:14Z</time>
      </trkpt>
      <trkpt lat="45.65718" lon="4.47961">
        <ele>667</ele>
        <time>2025-02-03T13:23:40Z</time>
      </trkpt>
      <trkpt lat="45.65747" lon="4.47975">
        <ele>667</ele>
        <time>2025-02-03T13:24:21Z</time>
      </trkpt>
      <trkpt lat="45.65783" lon="4.47996">
        <ele>668</ele>
        <time>2025-02-03T13:25:13Z</time>
      </trkpt>
      <trkpt lat="45.65809" lon="4.48023">
        <ele>669</ele>
        <time>2025-02-03T13:25:56Z</time>
      </trkpt>
      <trkpt lat="45.65832" lon="4.4806">
        <ele>672</ele>
        <time>2025-02-03T13:26:42Z</time>
      </trkpt>
      <trkpt lat="45.65881" lon="4.481">
        <ele>672</ele>
        <time>2025-02-03T13:27:57Z</time>
      </trkpt>
      <trkpt lat="45.65922" lon="4.48158">
        <ele>674</ele>
        <time>2025-02-03T13:29:14Z</time>
      </trkpt>
      <trkpt lat="45.65945" lon="4.4818">
        <ele>672</ele>
        <time>2025-02-03T13:29:51Z</time>
      </trkpt>
      <trkpt lat="45.65953" lon="4.48188">
        <ele>672</ele>
        <time>2025-02-03T13:30:04Z</time>
      </trkpt>
      <trkpt lat="45.65979" lon="4.48226">
        <ele>672</ele>
        <time>2025-02-03T13:30:54Z</time>
      </trkpt>
      <trkpt lat="45.66" lon="4.48248">
        <ele>672</ele>
        <time>2025-02-03T13:31:29Z</time>
      </trkpt>
      <trkpt lat="45.66003" lon="4.48268">
        <ele>673</ele>
        <time>2025-02-03T13:31:48Z</time>
      </trkpt>
      <trkpt lat="45.66012" lon="4.48289">
        <ele>673</ele>
        <time>2025-02-03T13:32:11Z</time>
      </trkpt>
      <trkpt lat="45.6603" lon="4.48336">
        <ele>673</ele>
        <time>2025-02-03T13:33:01Z</time>
      </trkpt>
      <trkpt lat="45.66042" lon="4.48387">
        <ele>673</ele>
        <time>2025-02-03T13:33:51Z</time>
      </trkpt>
      <trkpt lat="45.66068" lon="4.48432">
        <ele>671</ele>
        <time>2025-02-03T13:34:45Z</time>
      </trkpt>
      <trkpt lat="45.66088" lon="4.48486">
        <ele>672</ele>
        <time>2025-02-03T13:35:42Z</time>
      </trkpt>
      <trkpt lat="45.66092" lon="4.48506">
        <ele>674</ele>
        <time>2025-02-03T13:36:02Z</time>
      </trkpt>
      <trkpt lat="45.661" lon="4.48542">
        <ele>677</ele>
        <time>2025-02-03T13:36:37Z</time>
      </trkpt>
      <trkpt lat="45.66103" lon="4.48544">
        <ele>677</ele>
        <time>2025-02-03T13:36:41Z</time>
      </trkpt>
      <trkpt lat="45.66109" lon="4.48545">
        <ele>676</ele>
        <time>2025-02-03T13:36:49Z</time>
      </trkpt>
      <trkpt lat="45.66126" lon="4.48543">
        <ele>673</ele>
        <time>2025-02-03T13:37:12Z</time>
      </trkpt>
      <trkpt lat="45.66141" lon="4.48539">
        <ele>671</ele>
        <time>2025-02-03T13:37:32Z</time>
      </trkpt>
      <trkpt lat="45.66173" lon="4.48539">
        <ele>668</ele>
        <time>2025-02-03T13:38:15Z</time>
      </trkpt>
      <trkpt lat="45.66184" lon="4.48537">
        <ele>668</ele>
        <time>2025-02-03T13:38:30Z</time>
      </trkpt>
      <trkpt lat="45.66194" lon="4.48527">
        <ele>668</ele>
        <time>2025-02-03T13:38:46Z</time>
      </trkpt>
      <trkpt lat="45.66201" lon="4.4852">
        <ele>668</ele>
        <time>2025-02-03T13:38:58Z</time>
      </trkpt>
      <trkpt lat="45.66224" lon="4.48496">
        <ele>668</ele>
        <time>2025-02-03T13:39:36Z</time>
      </trkpt>
      <trkpt lat="45.66227" lon="4.48484">
        <ele>668</ele>
        <time>2025-02-03T13:39:47Z</time>
      </trkpt>
      <trkpt lat="45.66228" lon="4.48474">
        <ele>668</ele>
        <time>2025-02-03T13:39:57Z</time>
      </trkpt>
      <trkpt lat="45.66215" lon="4.48457">
        <ele>667</ele>
        <time>2025-02-03T13:40:20Z</time>
      </trkpt>
      <trkpt lat="45.66212" lon="4.48448">
        <ele>666</ele>
        <time>2025-02-03T13:40:30Z</time>
      </trkpt>
      <trkpt lat="45.66209" lon="4.48438">
        <ele>666</ele>
        <time>2025-02-03T13:40:40Z</time>
      </trkpt>
      <trkpt lat="45.6621" lon="4.48427">
        <ele>665</ele>
        <time>2025-02-03T13:40:50Z</time>
      </trkpt>
      <trkpt lat="45.66214" lon="4.48415">
        <ele>665</ele>
        <time>2025-02-03T13:41:03Z</time>
      </trkpt>
      <trkpt lat="45.66221" lon="4.48405">
        <ele>666</ele>
        <time>2025-02-03T13:41:16Z</time>
      </trkpt>
      <trkpt lat="45.66231" lon="4.48395">
        <ele>667</ele>
        <time>2025-02-03T13:41:32Z</time>
      </trkpt>
      <trkpt lat="45.66238" lon="4.48386">
        <ele>668</ele>
        <time>2025-02-03T13:41:45Z</time>
      </trkpt>
      <trkpt lat="45.6624" lon="4.48375">
        <ele>668</ele>
        <time>2025-02-03T13:41:55Z</time>
      </trkpt>
      <trkpt lat="45.66236" lon="4.48354">
        <ele>668</ele>
        <time>2025-02-03T13:42:16Z</time>
      </trkpt>
      <trkpt lat="45.66229" lon="4.48326">
        <ele>669</ele>
        <time>2025-02-03T13:42:43Z</time>
      </trkpt>
      <trkpt lat="45.66223" lon="4.48295">
        <ele>669</ele>
        <time>2025-02-03T13:43:13Z</time>
      </trkpt>
      <trkpt lat="45.66217" lon="4.48269">
        <ele>669</ele>
        <time>2025-02-03T13:43:39Z</time>
      </trkpt>
      <trkpt lat="45.66196" lon="4.4824">
        <ele>667</ele>
        <time>2025-02-03T13:44:18Z</time>
      </trkpt>
      <trkpt lat="45.66185" lon="4.4821">
        <ele>666</ele>
        <time>2025-02-03T13:44:49Z</time>
      </trkpt>
      <trkpt lat="45.66174" lon="4.48182">
        <ele>665</ele>
        <time>2025-02-03T13:45:19Z</time>
      </trkpt>
      <trkpt lat="45.66171" lon="4.48149">
        <ele>665</ele>
        <time>2025-02-03T13:45:50Z</time>
      </trkpt>
      <trkpt lat="45.66174" lon="4.48106">
        <ele>665</ele>
        <time>2025-02-03T13:46:31Z</time>
      </trkpt>
      <trkpt lat="45.66179" lon="4.48063">
        <ele>666</ele>
        <time>2025-02-03T13:47:11Z</time>
      </trkpt>
      <trkpt lat="45.6619" lon="4.48004">
        <ele>669</ele>
        <time>2025-02-03T13:48:08Z</time>
      </trkpt>
      <trkpt lat="45.66217" lon="4.4785">
        <ele>677</ele>
        <time>2025-02-03T13:50:36Z</time>
      </trkpt>
      <trkpt lat="45.66227" lon="4.47856">
        <ele>678</ele>
        <time>2025-02-03T13:50:51Z</time>
      </trkpt>
      <trkpt lat="45.66239" lon="4.47783">
        <ele>683</ele>
        <time>2025-02-03T13:52:01Z</time>
      </trkpt>
      <trkpt lat="45.66284" lon="4.47519">
        <ele>689</ele>
        <time>2025-02-03T13:56:14Z</time>
      </trkpt>
      <trkpt lat="45.66288" lon="4.47511">
        <ele>690</ele>
        <time>2025-02-03T13:56:23Z</time>
      </trkpt>
      <trkpt lat="45.66303" lon="4.47491">
        <ele>689</ele>
        <time>2025-02-03T13:56:51Z</time>
      </trkpt>
      <trkpt lat="45.6631" lon="4.47474">
        <ele>688</ele>
        <time>2025-02-03T13:57:09Z</time>
      </trkpt>
      <trkpt lat="45.6632" lon="4.47446">
        <ele>686</ele>
        <time>2025-02-03T13:57:38Z</time>
      </trkpt>
      <trkpt lat="45.66324" lon="4.47439">
        <ele>685</ele>
        <time>2025-02-03T13:57:47Z</time>
      </trkpt>
      <trkpt lat="45.6633" lon="4.47435">
        <ele>685</ele>
        <time>2025-02-03T13:57:56Z</time>
      </trkpt>
      <trkpt lat="45.66337" lon="4.47437">
        <ele>684</ele>
        <time>2025-02-03T13:58:05Z</time>
      </trkpt>
      <trkpt lat="45.66379" lon="4.47474">
        <ele>683</ele>
        <time>2025-02-03T13:59:11Z</time>
      </trkpt>
      <trkpt lat="45.66406" lon="4.47492">
        <ele>684</ele>
        <time>2025-02-03T13:59:51Z</time>
      </trkpt>
      <trkpt lat="45.66429" lon="4.47505">
        <ele>685</ele>
        <time>2025-02-03T14:00:24Z</time>
      </trkpt>
      <trkpt lat="45.66453" lon="4.47516">
        <ele>687</ele>
        <time>2025-02-03T14:00:57Z</time>
      </trkpt>
      <trkpt lat="45.6652" lon="4.47544">
        <ele>690</ele>
        <time>2025-02-03T14:02:31Z</time>
      </trkpt>
      <trkpt lat="45.66542" lon="4.47551">
        <ele>691</ele>
        <time>2025-02-03T14:03:01Z</time>
      </trkpt>
      <trkpt lat="45.66559" lon="4.47555">
        <ele>691</ele>
        <time>2025-02-03T14:03:24Z</time>
      </trkpt>
      <trkpt lat="45.66573" lon="4.47557">
        <ele>690</ele>
        <time>2025-02-03T14:03:42Z</time>
      </trkpt>
      <trkpt lat="45.66583" lon="4.47553">
        <ele>690</ele>
        <time>2025-02-03T14:03:56Z</time>
      </trkpt>
      <trkpt lat="45.66598" lon="4.47539">
        <ele>690</ele>
        <time>2025-02-03T14:04:20Z</time>
      </trkpt>
      <trkpt lat="45.66614" lon="4.47519">
        <ele>690</ele>
        <time>2025-02-03T14:04:49Z</time>
      </trkpt>
      <trkpt lat="45.66629" lon="4.47502">
        <ele>691</ele>
        <time>2025-02-03T14:05:14Z</time>
      </trkpt>
      <trkpt lat="45.66648" lon="4.47489">
        <ele>692</ele>
        <time>2025-02-03T14:05:42Z</time>
      </trkpt>
      <trkpt lat="45.66685" lon="4.47471">
        <ele>697</ele>
        <time>2025-02-03T14:06:34Z</time>
      </trkpt>
      <trkpt lat="45.66694" lon="4.4746">
        <ele>698</ele>
        <time>2025-02-03T14:06:50Z</time>
      </trkpt>
      <trkpt lat="45.66702" lon="4.47439">
        <ele>700</ele>
        <time>2025-02-03T14:07:12Z</time>
      </trkpt>
      <trkpt lat="45.66719" lon="4.47387">
        <ele>704</ele>
        <time>2025-02-03T14:08:06Z</time>
      </trkpt>
      <trkpt lat="45.66725" lon="4.47368">
        <ele>706</ele>
        <time>2025-02-03T14:08:25Z</time>
      </trkpt>
      <trkpt lat="45.6673" lon="4.47363">
        <ele>707</ele>
        <time>2025-02-03T14:08:34Z</time>
      </trkpt>
      <trkpt lat="45.66745" lon="4.47387">
        <ele>708</ele>
        <time>2025-02-03T14:09:04Z</time>
      </trkpt>
      <trkpt lat="45.66777" lon="4.47365">
        <ele>715</ele>
        <time>2025-02-03T14:09:51Z</time>
      </trkpt>
      <trkpt lat="45.66781" lon="4.47355">
        <ele>716</ele>
        <time>2025-02-03T14:10:02Z</time>
      </trkpt>
      <trkpt lat="45.66783" lon="4.47332">
        <ele>718</ele>
        <time>2025-02-03T14:10:23Z</time>
      </trkpt>
      <trkpt lat="45.66785" lon="4.47325">
        <ele>719</ele>
        <time>2025-02-03T14:10:30Z</time>
      </trkpt>
      <trkpt lat="45.66787" lon="4.47322">
        <ele>720</ele>
        <time>2025-02-03T14:10:34Z</time>
      </trkpt>
      <trkpt lat="45.66816" lon="4.473">
        <ele>729</ele>
        <time>2025-02-03T14:11:18Z</time>
      </trkpt>
      <trkpt lat="45.66825" lon="4.47294">
        <ele>732</ele>
        <time>2025-02-03T14:11:31Z</time>
      </trkpt>
      <trkpt lat="45.66841" lon="4.47292">
        <ele>736</ele>
        <time>2025-02-03T14:11:53Z</time>
      </trkpt>
      <trkpt lat="45.66875" lon="4.47281">
        <ele>742</ele>
        <time>2025-02-03T14:12:39Z</time>
      </trkpt>
      <trkpt lat="45.66898" lon="4.47277">
        <ele>746</ele>
        <time>2025-02-03T14:13:10Z</time>
      </trkpt>
      <trkpt lat="45.66911" lon="4.47276">
        <ele>747</ele>
        <time>2025-02-03T14:13:28Z</time>
      </trkpt>
      <trkpt lat="45.6693" lon="4.47277">
        <ele>750</ele>
        <time>2025-02-03T14:13:53Z</time>
      </trkpt>
      <trkpt lat="45.66943" lon="4.47281">
        <ele>752</ele>
        <time>2025-02-03T14:14:11Z</time>
      </trkpt>
      <trkpt lat="45.66972" lon="4.47289">
        <ele>756</ele>
        <time>2025-02-03T14:14:50Z</time>
      </trkpt>
      <trkpt lat="45.66996" lon="4.47309">
        <ele>759</ele>
        <time>2025-02-03T14:15:27Z</time>
      </trkpt>
      <trkpt lat="45.67007" lon="4.47296">
        <ele>760</ele>
        <time>2025-02-03T14:15:46Z</time>
      </trkpt>
      <trkpt lat="45.67086" lon="4.47249">
        <ele>760</ele>
        <time>2025-02-03T14:17:40Z</time>
      </trkpt>
      <trkpt lat="45.6713" lon="4.47233">
        <ele>757</ele>
        <time>2025-02-03T14:18:41Z</time>
      </trkpt>
      <trkpt lat="45.67141" lon="4.47229">
        <ele>756</ele>
        <time>2025-02-03T14:18:56Z</time>
      </trkpt>
      <trkpt lat="45.67153" lon="4.47187">
        <ele>754</ele>
        <time>2025-02-03T14:19:38Z</time>
      </trkpt>
      <trkpt lat="45.67155" lon="4.47125">
        <ele>749</ele>
        <time>2025-02-03T14:20:36Z</time>
      </trkpt>
      <trkpt lat="45.67143" lon="4.47096">
        <ele>749</ele>
        <time>2025-02-03T14:21:08Z</time>
      </trkpt>
      <trkpt lat="45.67137" lon="4.47058">
        <ele>747</ele>
        <time>2025-02-03T14:21:44Z</time>
      </trkpt>
      <trkpt lat="45.67126" lon="4.47025">
        <ele>746</ele>
        <time>2025-02-03T14:22:18Z</time>
      </trkpt>
      <trkpt lat="45.67121" lon="4.46968">
        <ele>742</ele>
        <time>2025-02-03T14:23:12Z</time>
      </trkpt>
      <trkpt lat="45.67127" lon="4.46915">
        <ele>734</ele>
        <time>2025-02-03T14:24:02Z</time>
      </trkpt>
      <trkpt lat="45.67129" lon="4.46909">
        <ele>732</ele>
        <time>2025-02-03T14:24:08Z</time>
      </trkpt>
      <trkpt lat="45.67134" lon="4.46917">
        <ele>732</ele>
        <time>2025-02-03T14:24:18Z</time>
      </trkpt>
      <trkpt lat="45.6718" lon="4.46987">
        <ele>728</ele>
        <time>2025-02-03T14:25:48Z</time>
      </trkpt>
      <trkpt lat="45.67186" lon="4.46997">
        <ele>728</ele>
        <time>2025-02-03T14:26:00Z</time>
      </trkpt>
      <trkpt lat="45.67191" lon="4.47001">
        <ele>728</ele>
        <time>2025-02-03T14:26:07Z</time>
      </trkpt>
      <trkpt lat="45.67199" lon="4.47001">
        <ele>727</ele>
        <time>2025-02-03T14:26:18Z</time>
      </trkpt>
      <trkpt lat="45.67246" lon="4.46991">
        <ele>718</ele>
        <time>2025-02-03T14:27:22Z</time>
      </trkpt>
      <trkpt lat="45.67303" lon="4.46957">
        <ele>723</ele>
        <time>2025-02-03T14:28:44Z</time>
      </trkpt>
      <trkpt lat="45.6732" lon="4.46953">
        <ele>725</ele>
        <time>2025-02-03T14:29:07Z</time>
      </trkpt>
      <trkpt lat="45.67376" lon="4.46948">
        <ele>731</ele>
        <time>2025-02-03T14:30:22Z</time>
      </trkpt>
      <trkpt lat="45.67387" lon="4.46949">
        <ele>733</ele>
        <time>2025-02-03T14:30:37Z</time>
      </trkpt>
      <trkpt lat="45.67407" lon="4.46964">
        <ele>735</ele>
        <time>2025-02-03T14:31:07Z</time>
      </trkpt>
      <trkpt lat="45.67412" lon="4.46966">
        <ele>736</ele>
        <time>2025-02-03T14:31:14Z</time>
      </trkpt>
      <trkpt lat="45.67417" lon="4.46966">
        <ele>736</ele>
        <time>2025-02-03T14:31:20Z</time>
      </trkpt>
      <trkpt lat="45.67439" lon="4.46942">
        <ele>738</ele>
        <time>2025-02-03T14:31:57Z</time>
      </trkpt>
      <trkpt lat="45.67437" lon="4.4694">
        <ele>738</ele>
        <time>2025-02-03T14:32:00Z</time>
      </trkpt>
      <trkpt lat="45.67415" lon="4.46901">
        <ele>736</ele>
        <time>2025-02-03T14:32:47Z</time>
      </trkpt>
      <trkpt lat="45.67402" lon="4.46865">
        <ele>734</ele>
        <time>2025-02-03T14:33:25Z</time>
      </trkpt>
      <trkpt lat="45.67393" lon="4.46829">
        <ele>733</ele>
        <time>2025-02-03T14:34:01Z</time>
      </trkpt>
      <trkpt lat="45.67386" lon="4.46814">
        <ele>732</ele>
        <time>2025-02-03T14:34:17Z</time>
      </trkpt>
      <trkpt lat="45.67367" lon="4.46786">
        <ele>731</ele>
        <time>2025-02-03T14:34:54Z</time>
      </trkpt>
      <trkpt lat="45.67315" lon="4.46715">
        <ele>726</ele>
        <time>2025-02-03T14:36:30Z</time>
      </trkpt>
      <trkpt lat="45.67304" lon="4.46697">
        <ele>725</ele>
        <time>2025-02-03T14:36:52Z</time>
      </trkpt>
      <trkpt lat="45.67248" lon="4.46574">
        <ele>726</ele>
        <time>2025-02-03T14:39:09Z</time>
      </trkpt>
      <trkpt lat="45.67218" lon="4.465">
        <ele>728</ele>
        <time>2025-02-03T14:40:29Z</time>
      </trkpt>
      <trkpt lat="45.67207" lon="4.46476">
        <ele>728</ele>
        <time>2025-02-03T14:40:55Z</time>
      </trkpt>
      <trkpt lat="45.67202" lon="4.46469">
        <ele>728</ele>
        <time>2025-02-03T14:41:05Z</time>
      </trkpt>
      <trkpt lat="45.67184" lon="4.46443">
        <ele>727</ele>
        <time>2025-02-03T14:41:39Z</time>
      </trkpt>
      <trkpt lat="45.67165" lon="4.46409">
        <ele>727</ele>
        <time>2025-02-03T14:42:20Z</time>
      </trkpt>
      <trkpt lat="45.67117" lon="4.46381">
        <ele>724</ele>
        <time>2025-02-03T14:43:29Z</time>
      </trkpt>
      <trkpt lat="45.67091" lon="4.46353">
        <ele>723</ele>
        <time>2025-02-03T14:44:12Z</time>
      </trkpt>
      <trkpt lat="45.67065" lon="4.46318">
        <ele>723</ele>
        <time>2025-02-03T14:45:00Z</time>
      </trkpt>
      <trkpt lat="45.67036" lon="4.46294">
        <ele>721</ele>
        <time>2025-02-03T14:45:44Z</time>
      </trkpt>
      <trkpt lat="45.67004" lon="4.46256">
        <ele>719</ele>
        <time>2025-02-03T14:46:40Z</time>
      </trkpt>
      <trkpt lat="45.66948" lon="4.46195">
        <ele>717</ele>
        <time>2025-02-03T14:48:14Z</time>
      </trkpt>
      <trkpt lat="45.66928" lon="4.4618">
        <ele>715</ele>
        <time>2025-02-03T14:48:44Z</time>
      </trkpt>
      <trkpt lat="45.66902" lon="4.46153">
        <ele>714</ele>
        <time>2025-02-03T14:49:27Z</time>
      </trkpt>
      <trkpt lat="45.66853" lon="4.46072">
        <ele>711</ele>
        <time>2025-02-03T14:51:07Z</time>
      </trkpt>
      <trkpt lat="45.66823" lon="4.46026">
        <ele>710</ele>
        <time>2025-02-03T14:52:05Z</time>
      </trkpt>
      <trkpt lat="45.66783" lon="4.45979">
        <ele>706</ele>
        <time>2025-02-03T14:53:14Z</time>
      </trkpt>
      <trkpt lat="45.6674" lon="4.45903">
        <ele>701</ele>
        <time>2025-02-03T14:54:46Z</time>
      </trkpt>
      <trkpt lat="45.66715" lon="4.45847">
        <ele>699</ele>
        <time>2025-02-03T14:55:48Z</time>
      </trkpt>
      <trkpt lat="45.66645" lon="4.4579">
        <ele>692</ele>
        <time>2025-02-03T14:57:35Z</time>
      </trkpt>
      <trkpt lat="45.66642" lon="4.45778">
        <ele>692</ele>
        <time>2025-02-03T14:57:47Z</time>
      </trkpt>
      <trkpt lat="45.66657" lon="4.45775">
        <ele>692</ele>
        <time>2025-02-03T14:58:07Z</time>
      </trkpt>
      <trkpt lat="45.66642" lon="4.45778">
        <ele>692</ele>
        <time>2025-02-03T14:58:27Z</time>
      </trkpt>
      <trkpt lat="45.66632" lon="4.45774">
        <ele>692</ele>
        <time>2025-02-03T14:58:41Z</time>
      </trkpt>
      <trkpt lat="45.66619" lon="4.45764">
        <ele>691</ele>
        <time>2025-02-03T14:59:01Z</time>
      </trkpt>
      <trkpt lat="45.66597" lon="4.45747">
        <ele>691</ele>
        <time>2025-02-03T14:59:34Z</time>
      </trkpt>
      <trkpt lat="45.66589" lon="4.4574">
        <ele>691</ele>
        <time>2025-02-03T14:59:47Z</time>
      </trkpt>
      <trkpt lat="45.66585" lon="4.4573">
        <ele>691</ele>
        <time>2025-02-03T14:59:58Z</time>
      </trkpt>
      <trkpt lat="45.66583" lon="4.45717">
        <ele>691</ele>
        <time>2025-02-03T15:00:10Z</time>
      </trkpt>
      <trkpt lat="45.66583" lon="4.45669">
        <ele>692</ele>
        <time>2025-02-03T15:00:55Z</time>
      </trkpt>
      <trkpt lat="45.66585" lon="4.45565">
        <ele>694</ele>
        <time>2025-02-03T15:02:32Z</time>
      </trkpt>
      <trkpt lat="45.66603" lon="4.4554">
        <ele>693</ele>
        <time>2025-02-03T15:03:05Z</time>
      </trkpt>
      <trkpt lat="45.66612" lon="4.4552">
        <ele>693</ele>
        <time>2025-02-03T15:03:27Z</time>
      </trkpt>
      <trkpt lat="45.66619" lon="4.45498">
        <ele>692</ele>
        <time>2025-02-03T15:03:50Z</time>
      </trkpt>
      <trkpt lat="45.66624" lon="4.45475">
        <ele>691</ele>
        <time>2025-02-03T15:04:12Z</time>
      </trkpt>
      <trkpt lat="45.66623" lon="4.45455">
        <ele>690</ele>
        <time>2025-02-03T15:04:31Z</time>
      </trkpt>
      <trkpt lat="45.6662" lon="4.45439">
        <ele>689</ele>
        <time>2025-02-03T15:04:47Z</time>
      </trkpt>
      <trkpt lat="45.66615" lon="4.4543">
        <ele>689</ele>
        <time>2025-02-03T15:04:57Z</time>
      </trkpt>
      <trkpt lat="45.66609" lon="4.45418">
        <ele>688</ele>
        <time>2025-02-03T15:05:11Z</time>
      </trkpt>
      <trkpt lat="45.66596" lon="4.45383">
        <ele>686</ele>
        <time>2025-02-03T15:05:48Z</time>
      </trkpt>
      <trkpt lat="45.66589" lon="4.45358">
        <ele>683</ele>
        <time>2025-02-03T15:06:13Z</time>
      </trkpt>
      <trkpt lat="45.66581" lon="4.45333">
        <ele>680</ele>
        <time>2025-02-03T15:06:39Z</time>
      </trkpt>
      <trkpt lat="45.66574" lon="4.45316">
        <ele>679</ele>
        <time>2025-02-03T15:06:57Z</time>
      </trkpt>
      <trkpt lat="45.66564" lon="4.45307">
        <ele>679</ele>
        <time>2025-02-03T15:07:13Z</time>
      </trkpt>
      <trkpt lat="45.66547" lon="4.45299">
        <ele>679</ele>
        <time>2025-02-03T15:07:37Z</time>
      </trkpt>
      <trkpt lat="45.66539" lon="4.45297">
        <ele>679</ele>
        <time>2025-02-03T15:07:48Z</time>
      </trkpt>
      <trkpt lat="45.66531" lon="4.45294">
        <ele>680</ele>
        <time>2025-02-03T15:07:59Z</time>
      </trkpt>
      <trkpt lat="45.6655" lon="4.45265">
        <ele>678</ele>
        <time>2025-02-03T15:08:36Z</time>
      </trkpt>
      <trkpt lat="45.66555" lon="4.45247">
        <ele>677</ele>
        <time>2025-02-03T15:08:54Z</time>
      </trkpt>
      <trkpt lat="45.66555" lon="4.45247">
        <ele>677</ele>
        <time>2025-02-03T15:08:54Z</time>
      </trkpt>
      <trkpt lat="45.66556" lon="4.45242">
        <ele>677</ele>
        <time>2025-02-03T15:08:59Z</time>
      </trkpt>
      <trkpt lat="45.66552" lon="4.4522">
        <ele>678</ele>
        <time>2025-02-03T15:09:20Z</time>
      </trkpt>
      <trkpt lat="45.66548" lon="4.45207">
        <ele>678</ele>
        <time>2025-02-03T15:09:33Z</time>
      </trkpt>
      <trkpt lat="45.6654" lon="4.45179">
        <ele>678</ele>
        <time>2025-02-03T15:10:01Z</time>
      </trkpt>
      <trkpt lat="45.66535" lon="4.4514">
        <ele>678</ele>
        <time>2025-02-03T15:10:38Z</time>
      </trkpt>
      <trkpt lat="45.66534" lon="4.45121">
        <ele>678</ele>
        <time>2025-02-03T15:10:56Z</time>
      </trkpt>
      <trkpt lat="45.6653" lon="4.45104">
        <ele>678</ele>
        <time>2025-02-03T15:11:13Z</time>
      </trkpt>
      <trkpt lat="45.66519" lon="4.45073">
        <ele>676</ele>
        <time>2025-02-03T15:11:45Z</time>
      </trkpt>
      <trkpt lat="45.66517" lon="4.45049">
        <ele>675</ele>
        <time>2025-02-03T15:12:08Z</time>
      </trkpt>
      <trkpt lat="45.66518" lon="4.45022">
        <ele>673</ele>
        <time>2025-02-03T15:12:33Z</time>
      </trkpt>
      <trkpt lat="45.6652" lon="4.44991">
        <ele>672</ele>
        <time>2025-02-03T15:13:02Z</time>
      </trkpt>
      <trkpt lat="45.66518" lon="4.44964">
        <ele>670</ele>
        <time>2025-02-03T15:13:27Z</time>
      </trkpt>
      <trkpt lat="45.6651" lon="4.44935">
        <ele>667</ele>
        <time>2025-02-03T15:13:56Z</time>
      </trkpt>
      <trkpt lat="45.66498" lon="4.44919">
        <ele>664</ele>
        <time>2025-02-03T15:14:18Z</time>
      </trkpt>
      <trkpt lat="45.66455" lon="4.44856">
        <ele>667</ele>
        <time>2025-02-03T15:15:40Z</time>
      </trkpt>
      <trkpt lat="45.66446" lon="4.44839">
        <ele>667</ele>
        <time>2025-02-03T15:16:00Z</time>
      </trkpt>
      <trkpt lat="45.66434" lon="4.44808">
        <ele>667</ele>
        <time>2025-02-03T15:16:33Z</time>
      </trkpt>
      <trkpt lat="45.66429" lon="4.44776">
        <ele>667</ele>
        <time>2025-02-03T15:17:04Z</time>
      </trkpt>
      <trkpt lat="45.66425" lon="4.44758">
        <ele>667</ele>
        <time>2025-02-03T15:17:22Z</time>
      </trkpt>
      <trkpt lat="45.66423" lon="4.44747">
        <ele>667</ele>
        <time>2025-02-03T15:17:32Z</time>
      </trkpt>
      <trkpt lat="45.66414" lon="4.44754">
        <ele>666</ele>
        <time>2025-02-03T15:17:46Z</time>
      </trkpt>
      <trkpt lat="45.664" lon="4.4478">
        <ele>669</ele>
        <time>2025-02-03T15:18:17Z</time>
      </trkpt>
      <trkpt lat="45.66396" lon="4.44785">
        <ele>669</ele>
        <time>2025-02-03T15:18:24Z</time>
      </trkpt>
      <trkpt lat="45.66387" lon="4.44792">
        <ele>670</ele>
        <time>2025-02-03T15:18:37Z</time>
      </trkpt>
      <trkpt lat="45.66374" lon="4.44773">
        <ele>673</ele>
        <time>2025-02-03T15:19:02Z</time>
      </trkpt>
      <trkpt lat="45.66363" lon="4.44747">
        <ele>675</ele>
        <time>2025-02-03T15:19:30Z</time>
      </trkpt>
      <trkpt lat="45.66347" lon="4.447">
        <ele>677</ele>
        <time>2025-02-03T15:20:19Z</time>
      </trkpt>
      <trkpt lat="45.66338" lon="4.44665">
        <ele>678</ele>
        <time>2025-02-03T15:20:54Z</time>
      </trkpt>
      <trkpt lat="45.66311" lon="4.44592">
        <ele>675</ele>
        <time>2025-02-03T15:22:11Z</time>
      </trkpt>
      <trkpt lat="45.66281" lon="4.44564">
        <ele>673</ele>
        <time>2025-02-03T15:22:59Z</time>
      </trkpt>
      <trkpt lat="45.66207" lon="4.44523">
        <ele>671</ele>
        <time>2025-02-03T15:24:45Z</time>
      </trkpt>
      <trkpt lat="45.66151" lon="4.44465">
        <ele>672</ele>
        <time>2025-02-03T15:26:17Z</time>
      </trkpt>
      <trkpt lat="45.66125" lon="4.44404">
        <ele>672</ele>
        <time>2025-02-03T15:27:24Z</time>
      </trkpt>
      <trkpt lat="45.66098" lon="4.44361">
        <ele>669</ele>
        <time>2025-02-03T15:28:17Z</time>
      </trkpt>
      <trkpt lat="45.66034" lon="4.44286">
        <ele>663</ele>
        <time>2025-02-03T15:30:08Z</time>
      </trkpt>
      <trkpt lat="45.66031" lon="4.44285">
        <ele>663</ele>
        <time>2025-02-03T15:30:12Z</time>
      </trkpt>
      <trkpt lat="45.66029" lon="4.44281">
        <ele>663</ele>
        <time>2025-02-03T15:30:17Z</time>
      </trkpt>
      <trkpt lat="45.66031" lon="4.44285">
        <ele>663</ele>
        <time>2025-02-03T15:30:21Z</time>
      </trkpt>
      <trkpt lat="45.66034" lon="4.44286">
        <ele>663</ele>
        <time>2025-02-03T15:30:25Z</time>
      </trkpt>
      <trkpt lat="45.66016" lon="4.44289">
        <ele>665</ele>
        <time>2025-02-03T15:30:49Z</time>
      </trkpt>
      <trkpt lat="45.65968" lon="4.44282">
        <ele>670</ele>
        <time>2025-02-03T15:31:54Z</time>
      </trkpt>
      <trkpt lat="45.65923" lon="4.44268">
        <ele>673</ele>
        <time>2025-02-03T15:32:55Z</time>
      </trkpt>
      <trkpt lat="45.65893" lon="4.44262">
        <ele>680</ele>
        <time>2025-02-03T15:33:36Z</time>
      </trkpt>
      <trkpt lat="45.65874" lon="4.44247">
        <ele>683</ele>
        <time>2025-02-03T15:34:05Z</time>
      </trkpt>
      <trkpt lat="45.65865" lon="4.4424">
        <ele>685</ele>
        <time>2025-02-03T15:34:18Z</time>
      </trkpt>
      <trkpt lat="45.65847" lon="4.44204">
        <ele>684</ele>
        <time>2025-02-03T15:35:00Z</time>
      </trkpt>
      <trkpt lat="45.65815" lon="4.44181">
        <ele>688</ele>
        <time>2025-02-03T15:35:47Z</time>
      </trkpt>
      <trkpt lat="45.65789" lon="4.44174">
        <ele>692</ele>
        <time>2025-02-03T15:36:23Z</time>
      </trkpt>
      <trkpt lat="45.65692" lon="4.44175">
        <ele>712</ele>
        <time>2025-02-03T15:38:32Z</time>
      </trkpt>
      <trkpt lat="45.65665" lon="4.44142">
        <ele>713</ele>
        <time>2025-02-03T15:39:20Z</time>
      </trkpt>
      <trkpt lat="45.65633" lon="4.44081">
        <ele>711</ele>
        <time>2025-02-03T15:40:31Z</time>
      </trkpt>
      <trkpt lat="45.65594" lon="4.4407">
        <ele>715</ele>
        <time>2025-02-03T15:41:24Z</time>
      </trkpt>
      <trkpt lat="45.65566" lon="4.44035">
        <ele>716</ele>
        <time>2025-02-03T15:42:13Z</time>
      </trkpt>
      <trkpt lat="45.65543" lon="4.43998">
        <ele>717</ele>
        <time>2025-02-03T15:43:00Z</time>
      </trkpt>
      <trkpt lat="45.6552" lon="4.4397">
        <ele>721</ele>
        <time>2025-02-03T15:43:40Z</time>
      </trkpt>
      <trkpt lat="45.65498" lon="4.43888">
        <ele>717</ele>
        <time>2025-02-03T15:45:02Z</time>
      </trkpt>
      <trkpt lat="45.65447" lon="4.43852">
        <ele>722</ele>
        <time>2025-02-03T15:46:18Z</time>
      </trkpt>
      <trkpt lat="45.65412" lon="4.43826">
        <ele>725</ele>
        <time>2025-02-03T15:47:10Z</time>
      </trkpt>
      <trkpt lat="45.65362" lon="4.4378">
        <ele>724</ele>
        <time>2025-02-03T15:48:30Z</time>
      </trkpt>
      <trkpt lat="45.6529" lon="4.43723">
        <ele>725</ele>
        <time>2025-02-03T15:50:19Z</time>
      </trkpt>
      <trkpt lat="45.65253" lon="4.43697">
        <ele>726</ele>
        <time>2025-02-03T15:51:14Z</time>
      </trkpt>
      <trkpt lat="45.65228" lon="4.43688">
        <ele>727</ele>
        <time>2025-02-03T15:51:49Z</time>
      </trkpt>
      <trkpt lat="45.65179" lon="4.43685">
        <ele>729</ele>
        <time>2025-02-03T15:52:54Z</time>
      </trkpt>
      <trkpt lat="45.65174" lon="4.43681">
        <ele>729</ele>
        <time>2025-02-03T15:53:02Z</time>
      </trkpt>
      <trkpt lat="45.65173" lon="4.43683">
        <ele>729</ele>
        <time>2025-02-03T15:53:04Z</time>
      </trkpt>
      <trkpt lat="45.65153" lon="4.43698">
        <ele>728</ele>
        <time>2025-02-03T15:53:34Z</time>
      </trkpt>
      <trkpt lat="45.6514" lon="4.43713">
        <ele>727</ele>
        <time>2025-02-03T15:53:57Z</time>
      </trkpt>
      <trkpt lat="45.65133" lon="4.43711">
        <ele>726</ele>
        <time>2025-02-03T15:54:06Z</time>
      </trkpt>
      <trkpt lat="45.65131" lon="4.43684">
        <ele>726</ele>
        <time>2025-02-03T15:54:32Z</time>
      </trkpt>
      <trkpt lat="45.6513" lon="4.43677">
        <ele>726</ele>
        <time>2025-02-03T15:54:38Z</time>
      </trkpt>
      <trkpt lat="45.65128" lon="4.43666">
        <ele>726</ele>
        <time>2025-02-03T15:54:49Z</time>
      </trkpt>
      <trkpt lat="45.65118" lon="4.43655">
        <ele>725</ele>
        <time>2025-02-03T15:55:06Z</time>
      </trkpt>
      <trkpt lat="45.6511" lon="4.43638">
        <ele>725</ele>
        <time>2025-02-03T15:55:25Z</time>
      </trkpt>
      <trkpt lat="45.651" lon="4.43613">
        <ele>725</ele>
        <time>2025-02-03T15:55:52Z</time>
      </trkpt>
      <trkpt lat="45.65089" lon="4.43589">
        <ele>725</ele>
        <time>2025-02-03T15:56:18Z</time>
      </trkpt>
      <trkpt lat="45.65075" lon="4.43532">
        <ele>723</ele>
        <time>2025-02-03T15:57:15Z</time>
      </trkpt>
      <trkpt lat="45.65071" lon="4.43508">
        <ele>722</ele>
        <time>2025-02-03T15:57:38Z</time>
      </trkpt>
      <trkpt lat="45.65065" lon="4.43486">
        <ele>720</ele>
        <time>2025-02-03T15:58:00Z</time>
      </trkpt>
      <trkpt lat="45.65057" lon="4.4347">
        <ele>717</ele>
        <time>2025-02-03T15:58:18Z</time>
      </trkpt>
      <trkpt lat="45.65047" lon="4.43441">
        <ele>714</ele>
        <time>2025-02-03T15:58:48Z</time>
      </trkpt>
      <trkpt lat="45.65046" lon="4.4343">
        <ele>714</ele>
        <time>2025-02-03T15:58:59Z</time>
      </trkpt>
      <trkpt lat="45.65048" lon="4.43418">
        <ele>713</ele>
        <time>2025-02-03T15:59:10Z</time>
      </trkpt>
      <trkpt lat="45.65054" lon="4.43406">
        <ele>712</ele>
        <time>2025-02-03T15:59:24Z</time>
      </trkpt>
      <trkpt lat="45.65052" lon="4.434">
        <ele>712</ele>
        <time>2025-02-03T15:59:30Z</time>
      </trkpt>
      <trkpt lat="45.65043" lon="4.43396">
        <ele>710</ele>
        <time>2025-02-03T15:59:43Z</time>
      </trkpt>
      <trkpt lat="45.65034" lon="4.43393">
        <ele>709</ele>
        <time>2025-02-03T15:59:55Z</time>
      </trkpt>
      <trkpt lat="45.65015" lon="4.43376">
        <ele>706</ele>
        <time>2025-02-03T16:00:25Z</time>
      </trkpt>
      <trkpt lat="45.64998" lon="4.43366">
        <ele>704</ele>
        <time>2025-02-03T16:00:49Z</time>
      </trkpt>
      <trkpt lat="45.65" lon="4.4336">
        <ele>704</ele>
        <time>2025-02-03T16:00:56Z</time>
      </trkpt>
      <trkpt lat="45.6501" lon="4.43327">
        <ele>702</ele>
        <time>2025-02-03T16:01:29Z</time>
      </trkpt>
      <trkpt lat="45.65018" lon="4.43314">
        <ele>701</ele>
        <time>2025-02-03T16:01:45Z</time>
      </trkpt>
      <trkpt lat="45.65032" lon="4.43305">
        <ele>700</ele>
        <time>2025-02-03T16:02:06Z</time>
      </trkpt>
      <trkpt lat="45.65058" lon="4.43285">
        <ele>696</ele>
        <time>2025-02-03T16:02:45Z</time>
      </trkpt>
      <trkpt lat="45.65081" lon="4.43272">
        <ele>692</ele>
        <time>2025-02-03T16:03:18Z</time>
      </trkpt>
      <trkpt lat="45.65081" lon="4.43268">
        <ele>692</ele>
        <time>2025-02-03T16:03:22Z</time>
      </trkpt>
      <trkpt lat="45.65079" lon="4.4325">
        <ele>688</ele>
        <time>2025-02-03T16:03:39Z</time>
      </trkpt>
      <trkpt lat="45.6509" lon="4.43169">
        <ele>680</ele>
        <time>2025-02-03T16:04:56Z</time>
      </trkpt>
      <trkpt lat="45.65081" lon="4.43131">
        <ele>677</ele>
        <time>2025-02-03T16:05:33Z</time>
      </trkpt>
      <trkpt lat="45.65055" lon="4.43105">
        <ele>678</ele>
        <time>2025-02-03T16:06:16Z</time>
      </trkpt>
      <trkpt lat="45.65032" lon="4.43075">
        <ele>678</ele>
        <time>2025-02-03T16:06:57Z</time>
      </trkpt>
      <trkpt lat="45.6501" lon="4.43058">
        <ele>679</ele>
        <time>2025-02-03T16:07:31Z</time>
      </trkpt>
      <trkpt lat="45.64858" lon="4.42976">
        <ele>678</ele>
        <time>2025-02-03T16:11:07Z</time>
      </trkpt>
      <trkpt lat="45.64846" lon="4.42973">
        <ele>678</ele>
        <time>2025-02-03T16:11:24Z</time>
      </trkpt>
      <trkpt lat="45.64842" lon="4.42977">
        <ele>678</ele>
        <time>2025-02-03T16:11:30Z</time>
      </trkpt>
      <trkpt lat="45.64837" lon="4.42983">
        <ele>679</ele>
        <time>2025-02-03T16:11:39Z</time>
      </trkpt>
      <trkpt lat="45.6481" lon="4.42927">
        <ele>681</ele>
        <time>2025-02-03T16:12:42Z</time>
      </trkpt>
      <trkpt lat="45.64807" lon="4.42914">
        <ele>682</ele>
        <time>2025-02-03T16:12:55Z</time>
      </trkpt>
      <trkpt lat="45.64804" lon="4.42894">
        <ele>683</ele>
        <time>2025-02-03T16:13:14Z</time>
      </trkpt>
      <trkpt lat="45.64799" lon="4.42863">
        <ele>685</ele>
        <time>2025-02-03T16:13:44Z</time>
      </trkpt>
      <trkpt lat="45.64779" lon="4.42777">
        <ele>690</ele>
        <time>2025-02-03T16:15:08Z</time>
      </trkpt>
      <trkpt lat="45.64765" lon="4.42742">
        <ele>693</ele>
        <time>2025-02-03T16:15:46Z</time>
      </trkpt>
      <trkpt lat="45.64724" lon="4.42676">
        <ele>690</ele>
        <time>2025-02-03T16:17:08Z</time>
      </trkpt>
      <trkpt lat="45.64685" lon="4.42616">
        <ele>687</ele>
        <time>2025-02-03T16:18:25Z</time>
      </trkpt>
      <trkpt lat="45.64652" lon="4.42601">
        <ele>688</ele>
        <time>2025-02-03T16:19:11Z</time>
      </trkpt>
      <trkpt lat="45.64632" lon="4.42561">
        <ele>688</ele>
        <time>2025-02-03T16:19:57Z</time>
      </trkpt>
      <trkpt lat="45.64616" lon="4.42536">
        <ele>690</ele>
        <time>2025-02-03T16:20:29Z</time>
      </trkpt>
      <trkpt lat="45.64589" lon="4.42465">
        <ele>695</ele>
        <time>2025-02-03T16:21:44Z</time>
      </trkpt>
      <trkpt lat="45.64565" lon="4.42444">
        <ele>697</ele>
        <time>2025-02-03T16:22:21Z</time>
      </trkpt>
      <trkpt lat="45.64552" lon="4.4236">
        <ele>701</ele>
        <time>2025-02-03T16:23:42Z</time>
      </trkpt>
      <trkpt lat="45.64519" lon="4.42283">
        <ele>704</ele>
        <time>2025-02-03T16:25:06Z</time>
      </trkpt>
      <trkpt lat="45.64495" lon="4.42206">
        <ele>702</ele>
        <time>2025-02-03T16:26:25Z</time>
      </trkpt>
      <trkpt lat="45.64476" lon="4.42178">
        <ele>699</ele>
        <time>2025-02-03T16:27:01Z</time>
      </trkpt>
      <trkpt lat="45.64481" lon="4.42164">
        <ele>699</ele>
        <time>2025-02-03T16:27:16Z</time>
      </trkpt>
      <trkpt lat="45.6449" lon="4.42147">
        <ele>700</ele>
        <time>2025-02-03T16:27:36Z</time>
      </trkpt>
      <trkpt lat="45.64495" lon="4.42103">
        <ele>699</ele>
        <time>2025-02-03T16:28:17Z</time>
      </trkpt>
      <trkpt lat="45.64499" lon="4.42069">
        <ele>698</ele>
        <time>2025-02-03T16:28:49Z</time>
      </trkpt>
      <trkpt lat="45.64487" lon="4.42033">
        <ele>694</ele>
        <time>2025-02-03T16:29:27Z</time>
      </trkpt>
      <trkpt lat="45.64457" lon="4.4197">
        <ele>688</ele>
        <time>2025-02-03T16:30:38Z</time>
      </trkpt>
      <trkpt lat="45.64445" lon="4.41934">
        <ele>683</ele>
        <time>2025-02-03T16:31:15Z</time>
      </trkpt>
      <trkpt lat="45.64434" lon="4.4191">
        <ele>681</ele>
        <time>2025-02-03T16:31:42Z</time>
      </trkpt>
      <trkpt lat="45.64421" lon="4.41879">
        <ele>678</ele>
        <time>2025-02-03T16:32:15Z</time>
      </trkpt>
      <trkpt lat="45.6441" lon="4.41855">
        <ele>676</ele>
        <time>2025-02-03T16:32:42Z</time>
      </trkpt>
      <trkpt lat="45.64395" lon="4.41846">
        <ele>674</ele>
        <time>2025-02-03T16:33:04Z</time>
      </trkpt>
      <trkpt lat="45.64358" lon="4.41828">
        <ele>670</ele>
        <time>2025-02-03T16:33:56Z</time>
      </trkpt>
      <trkpt lat="45.64344" lon="4.41818">
        <ele>668</ele>
        <time>2025-02-03T16:34:17Z</time>
      </trkpt>
      <trkpt lat="45.64338" lon="4.41813">
        <ele>668</ele>
        <time>2025-02-03T16:34:26Z</time>
      </trkpt>
      <trkpt lat="45.64293" lon="4.41772">
        <ele>663</ele>
        <time>2025-02-03T16:35:37Z</time>
      </trkpt>
      <trkpt lat="45.64255" lon="4.41747">
        <ele>662</ele>
        <time>2025-02-03T16:36:33Z</time>
      </trkpt>
      <trkpt lat="45.64242" lon="4.41734">
        <ele>660</ele>
        <time>2025-02-03T16:36:54Z</time>
      </trkpt>
      <trkpt lat="45.64237" lon="4.41715">
        <ele>658</ele>
        <time>2025-02-03T16:37:13Z</time>
      </trkpt>
      <trkpt lat="45.64221" lon="4.41633">
        <ele>651</ele>
        <time>2025-02-03T16:38:33Z</time>
      </trkpt>
      <trkpt lat="45.64204" lon="4.41577">
        <ele>647</ele>
        <time>2025-02-03T16:39:30Z</time>
      </trkpt>
      <trkpt lat="45.64185" lon="4.41557">
        <ele>646</ele>
        <time>2025-02-03T16:40:01Z</time>
      </trkpt>
      <trkpt lat="45.64174" lon="4.41536">
        <ele>645</ele>
        <time>2025-02-03T16:40:26Z</time>
      </trkpt>
      <trkpt lat="45.64171" lon="4.41521">
        <ele>645</ele>
        <time>2025-02-03T16:40:40Z</time>
      </trkpt>
      <trkpt lat="45.6417" lon="4.41515">
        <ele>644</ele>
        <time>2025-02-03T16:40:46Z</time>
      </trkpt>
      <trkpt lat="45.64155" lon="4.41508">
        <ele>643</ele>
        <time>2025-02-03T16:41:07Z</time>
      </trkpt>
      <trkpt lat="45.64125" lon="4.41501">
        <ele>639</ele>
        <time>2025-02-03T16:41:48Z</time>
      </trkpt>
      <trkpt lat="45.64088" lon="4.4149">
        <ele>634</ele>
        <time>2025-02-03T16:42:38Z</time>
      </trkpt>
      <trkpt lat="45.64038" lon="4.41471">
        <ele>626</ele>
        <time>2025-02-03T16:43:47Z</time>
      </trkpt>
      <trkpt lat="45.63946" lon="4.41434">
        <ele>614</ele>
        <time>2025-02-03T16:45:55Z</time>
      </trkpt>
      <trkpt lat="45.63945" lon="4.41438">
        <ele>614</ele>
        <time>2025-02-03T16:45:59Z</time>
      </trkpt>
      <trkpt lat="45.63946" lon="4.41434">
        <ele>614</ele>
        <time>2025-02-03T16:46:02Z</time>
      </trkpt>
      <trkpt lat="45.63974" lon="4.41412">
        <ele>614</ele>
        <time>2025-02-03T16:46:45Z</time>
      </trkpt>
      <trkpt lat="45.64016" lon="4.4137">
        <ele>612</ele>
        <time>2025-02-03T16:47:54Z</time>
      </trkpt>
      <trkpt lat="45.64034" lon="4.41334">
        <ele>611</ele>
        <time>2025-02-03T16:48:35Z</time>
      </trkpt>
      <trkpt lat="45.64049" lon="4.41271">
        <ele>606</ele>
        <time>2025-02-03T16:49:37Z</time>
      </trkpt>
      <trkpt lat="45.64044" lon="4.41263">
        <ele>604</ele>
        <time>2025-02-03T16:49:47Z</time>
      </trkpt>
      <trkpt lat="45.64045" lon="4.41243">
        <ele>602</ele>
        <time>2025-02-03T16:50:06Z</time>
      </trkpt>
      <trkpt lat="45.64049" lon="4.41197">
        <ele>596</ele>
        <time>2025-02-03T16:50:49Z</time>
      </trkpt>
      <trkpt lat="45.64062" lon="4.41145">
        <ele>590</ele>
        <time>2025-02-03T16:51:40Z</time>
      </trkpt>
      <trkpt lat="45.64066" lon="4.41125">
        <ele>587</ele>
        <time>2025-02-03T16:52:00Z</time>
      </trkpt>
      <trkpt lat="45.6399" lon="4.41088">
        <ele>570</ele>
        <time>2025-02-03T16:53:47Z</time>
      </trkpt>
      <trkpt lat="45.63994" lon="4.41078">
        <ele>569</ele>
        <time>2025-02-03T16:53:58Z</time>
      </trkpt>
      <trkpt lat="45.64045" lon="4.41052">
        <ele>573</ele>
        <time>2025-02-03T16:55:10Z</time>
      </trkpt>
      <trkpt lat="45.64047" lon="4.41048">
        <ele>572</ele>
        <time>2025-02-03T16:55:15Z</time>
      </trkpt>
      <trkpt lat="45.64051" lon="4.4104">
        <ele>572</ele>
        <time>2025-02-03T16:55:24Z</time>
      </trkpt>
      <trkpt lat="45.64052" lon="4.41027">
        <ele>571</ele>
        <time>2025-02-03T16:55:36Z</time>
      </trkpt>
      <trkpt lat="45.64015" lon="4.41006">
        <ele>565</ele>
        <time>2025-02-03T16:56:29Z</time>
      </trkpt>
      <trkpt lat="45.6398" lon="4.4096">
        <ele>564</ele>
        <time>2025-02-03T16:57:32Z</time>
      </trkpt>
      <trkpt lat="45.63929" lon="4.4093">
        <ele>561</ele>
        <time>2025-02-03T16:58:46Z</time>
      </trkpt>
      <trkpt lat="45.63918" lon="4.40901">
        <ele>563</ele>
        <time>2025-02-03T16:59:17Z</time>
      </trkpt>
      <trkpt lat="45.63902" lon="4.40808">
        <ele>572</ele>
        <time>2025-02-03T17:00:46Z</time>
      </trkpt>
      <trkpt lat="45.63902" lon="4.40808">
        <ele>572</ele>
        <time>2025-02-03T17:00:46Z</time>
      </trkpt>
      <trkpt lat="45.63904" lon="4.40741">
        <ele>577</ele>
        <time>2025-02-03T17:01:49Z</time>
      </trkpt>
      <trkpt lat="45.63903" lon="4.40727">
        <ele>578</ele>
        <time>2025-02-03T17:02:02Z</time>
      </trkpt>
      <trkpt lat="45.639" lon="4.40717">
        <ele>578</ele>
        <time>2025-02-03T17:02:12Z</time>
      </trkpt>
      <trkpt lat="45.63896" lon="4.40709">
        <ele>578</ele>
        <time>2025-02-03T17:02:21Z</time>
      </trkpt>
      <trkpt lat="45.63879" lon="4.40689">
        <ele>578</ele>
        <time>2025-02-03T17:02:51Z</time>
      </trkpt>
      <trkpt lat="45.63868" lon="4.40673">
        <ele>578</ele>
        <time>2025-02-03T17:03:12Z</time>
      </trkpt>
      <trkpt lat="45.63865" lon="4.40665">
        <ele>579</ele>
        <time>2025-02-03T17:03:20Z</time>
      </trkpt>
      <trkpt lat="45.63865" lon="4.40659">
        <ele>579</ele>
        <time>2025-02-03T17:03:26Z</time>
      </trkpt>
      <trkpt lat="45.63866" lon="4.40651">
        <ele>579</ele>
        <time>2025-02-03T17:03:33Z</time>
      </trkpt>
      <trkpt lat="45.63871" lon="4.40641">
        <ele>580</ele>
        <time>2025-02-03T17:03:45Z</time>
      </trkpt>
      <trkpt lat="45.63843" lon="4.40615">
        <ele>579</ele>
        <time>2025-02-03T17:04:29Z</time>
      </trkpt>
      <trkpt lat="45.63826" lon="4.40591">
        <ele>577</ele>
        <time>2025-02-03T17:05:01Z</time>
      </trkpt>
      <trkpt lat="45.63818" lon="4.40572">
        <ele>576</ele>
        <time>2025-02-03T17:05:22Z</time>
      </trkpt>
      <trkpt lat="45.63814" lon="4.40539">
        <ele>575</ele>
        <time>2025-02-03T17:05:53Z</time>
      </trkpt>
      <trkpt lat="45.63809" lon="4.40513">
        <ele>574</ele>
        <time>2025-02-03T17:06:18Z</time>
      </trkpt>
      <trkpt lat="45.63797" lon="4.40495">
        <ele>572</ele>
        <time>2025-02-03T17:06:41Z</time>
      </trkpt>
      <trkpt lat="45.63785" lon="4.40487">
        <ele>571</ele>
        <time>2025-02-03T17:06:59Z</time>
      </trkpt>
      <trkpt lat="45.63778" lon="4.40479">
        <ele>570</ele>
        <time>2025-02-03T17:07:11Z</time>
      </trkpt>
      <trkpt lat="45.63778" lon="4.40465">
        <ele>571</ele>
        <time>2025-02-03T17:07:24Z</time>
      </trkpt>
      <trkpt lat="45.63794" lon="4.40382">
        <ele>574</ele>
        <time>2025-02-03T17:08:44Z</time>
      </trkpt>
      <trkpt lat="45.63798" lon="4.40352">
        <ele>574</ele>
        <time>2025-02-03T17:09:13Z</time>
      </trkpt>
      <trkpt lat="45.63803" lon="4.40333">
        <ele>574</ele>
        <time>2025-02-03T17:09:32Z</time>
      </trkpt>
      <trkpt lat="45.63869" lon="4.4021">
        <ele>579</ele>
        <time>2025-02-03T17:11:57Z</time>
      </trkpt>
      <trkpt lat="45.63876" lon="4.4019">
        <ele>579</ele>
        <time>2025-02-03T17:12:17Z</time>
      </trkpt>
      <trkpt lat="45.63879" lon="4.40171">
        <ele>579</ele>
        <time>2025-02-03T17:12:36Z</time>
      </trkpt>
      <trkpt lat="45.63877" lon="4.40016">
        <ele>592</ele>
        <time>2025-02-03T17:15:00Z</time>
      </trkpt>
      <trkpt lat="45.63886" lon="4.39996">
        <ele>593</ele>
        <time>2025-02-03T17:15:22Z</time>
      </trkpt>
      <trkpt lat="45.63899" lon="4.39972">
        <ele>595</ele>
        <time>2025-02-03T17:15:51Z</time>
      </trkpt>
      <trkpt lat="45.63901" lon="4.3996">
        <ele>595</ele>
        <time>2025-02-03T17:16:02Z</time>
      </trkpt>
      <trkpt lat="45.63905" lon="4.39949">
        <ele>596</ele>
        <time>2025-02-03T17:16:14Z</time>
      </trkpt>
      <trkpt lat="45.6391" lon="4.39937">
        <ele>596</ele>
        <time>2025-02-03T17:16:27Z</time>
      </trkpt>
      <trkpt lat="45.63924" lon="4.39892">
        <ele>601</ele>
        <time>2025-02-03T17:17:13Z</time>
      </trkpt>
      <trkpt lat="45.63924" lon="4.39878">
        <ele>602</ele>
        <time>2025-02-03T17:17:26Z</time>
      </trkpt>
      <trkpt lat="45.63917" lon="4.39861">
        <ele>604</ele>
        <time>2025-02-03T17:17:44Z</time>
      </trkpt>
      <trkpt lat="45.63886" lon="4.39815">
        <ele>606</ele>
        <time>2025-02-03T17:18:44Z</time>
      </trkpt>
      <trkpt lat="45.63858" lon="4.3968">
        <ele>613</ele>
        <time>2025-02-03T17:20:55Z</time>
      </trkpt>
      <trkpt lat="45.63847" lon="4.39634">
        <ele>615</ele>
        <time>2025-02-03T17:21:41Z</time>
      </trkpt>
      <trkpt lat="45.63835" lon="4.39602">
        <ele>617</ele>
        <time>2025-02-03T17:22:14Z</time>
      </trkpt>
      <trkpt lat="45.63831" lon="4.39566">
        <ele>620</ele>
        <time>2025-02-03T17:22:49Z</time>
      </trkpt>
      <trkpt lat="45.63825" lon="4.39549">
        <ele>621</ele>
        <time>2025-02-03T17:23:06Z</time>
      </trkpt>
      <trkpt lat="45.63828" lon="4.39547">
        <ele>622</ele>
        <time>2025-02-03T17:23:11Z</time>
      </trkpt>
      <trkpt lat="45.63825" lon="4.39549">
        <ele>621</ele>
        <time>2025-02-03T17:23:15Z</time>
      </trkpt>
      <trkpt lat="45.63809" lon="4.39556">
        <ele>621</ele>
        <time>2025-02-03T17:23:37Z</time>
      </trkpt>
      <trkpt lat="45.63812" lon="4.39485">
        <ele>626</ele>
        <time>2025-02-03T17:24:44Z</time>
      </trkpt>
      <trkpt lat="45.63813" lon="4.3947">
        <ele>626</ele>
        <time>2025-02-03T17:24:58Z</time>
      </trkpt>
      <trkpt lat="45.63793" lon="4.39483">
        <ele>626</ele>
        <time>2025-02-03T17:25:27Z</time>
      </trkpt>
      <trkpt lat="45.63647" lon="4.39553">
        <ele>625</ele>
        <time>2025-02-03T17:28:53Z</time>
      </trkpt>
      <trkpt lat="45.63644" lon="4.3956">
        <ele>625</ele>
        <time>2025-02-03T17:29:00Z</time>
      </trkpt>
      <trkpt lat="45.63641" lon="4.39571">
        <ele>624</ele>
        <time>2025-02-03T17:29:11Z</time>
      </trkpt>
      <trkpt lat="45.63634" lon="4.3957">
        <ele>624</ele>
        <time>2025-02-03T17:29:21Z</time>
      </trkpt>
      <trkpt lat="45.63622" lon="4.39575">
        <ele>624</ele>
        <time>2025-02-03T17:29:37Z</time>
      </trkpt>
      <trkpt lat="45.63591" lon="4.39596">
        <ele>622</ele>
        <time>2025-02-03T17:30:23Z</time>
      </trkpt>
      <trkpt lat="45.63572" lon="4.39604">
        <ele>621</ele>
        <time>2025-02-03T17:30:50Z</time>
      </trkpt>
      <trkpt lat="45.63539" lon="4.39613">
        <ele>619</ele>
        <time>2025-02-03T17:31:34Z</time>
      </trkpt>
      <trkpt lat="45.63508" lon="4.39625">
        <ele>618</ele>
        <time>2025-02-03T17:32:17Z</time>
      </trkpt>
      <trkpt lat="45.63446" lon="4.39652">
        <ele>613</ele>
        <time>2025-02-03T17:33:44Z</time>
      </trkpt>
      <trkpt lat="45.63446" lon="4.39646">
        <ele>613</ele>
        <time>2025-02-03T17:33:49Z</time>
      </trkpt>
      <trkpt lat="45.63446" lon="4.39652">
        <ele>613</ele>
        <time>2025-02-03T17:33:55Z</time>
      </trkpt>
      <trkpt lat="45.63382" lon="4.39663">
        <ele>607</ele>
        <time>2025-02-03T17:35:21Z</time>
      </trkpt>
      <trkpt lat="45.63362" lon="4.39667">
        <ele>605</ele>
        <time>2025-02-03T17:35:48Z</time>
      </trkpt>
      <trkpt lat="45.63333" lon="4.39669">
        <ele>602</ele>
        <time>2025-02-03T17:36:27Z</time>
      </trkpt>
      <trkpt lat="45.63299" lon="4.39676">
        <ele>599</ele>
        <time>2025-02-03T17:37:13Z</time>
      </trkpt>
      <trkpt lat="45.63292" lon="4.39677">
        <ele>599</ele>
        <time>2025-02-03T17:37:22Z</time>
      </trkpt>
      <trkpt lat="45.63245" lon="4.39703">
        <ele>594</ele>
        <time>2025-02-03T17:38:29Z</time>
      </trkpt>
      <trkpt lat="45.63234" lon="4.39711">
        <ele>593</ele>
        <time>2025-02-03T17:38:46Z</time>
      </trkpt>
      <trkpt lat="45.63204" lon="4.39712">
        <ele>589</ele>
        <time>2025-02-03T17:39:26Z</time>
      </trkpt>
      <trkpt lat="45.63168" lon="4.39715">
        <ele>585</ele>
        <time>2025-02-03T17:40:14Z</time>
      </trkpt>
      <trkpt lat="45.63151" lon="4.39723">
        <ele>583</ele>
        <time>2025-02-03T17:40:38Z</time>
      </trkpt>
      <trkpt lat="45.6314" lon="4.39748">
        <ele>582</ele>
        <time>2025-02-03T17:41:05Z</time>
      </trkpt>
      <trkpt lat="45.63125" lon="4.39791">
        <ele>578</ele>
        <time>2025-02-03T17:41:50Z</time>
      </trkpt>
      <trkpt lat="45.63116" lon="4.39805">
        <ele>577</ele>
        <time>2025-02-03T17:42:08Z</time>
      </trkpt>
      <trkpt lat="45.6311" lon="4.39813">
        <ele>576</ele>
        <time>2025-02-03T17:42:19Z</time>
      </trkpt>
      <trkpt lat="45.62966" lon="4.39988">
        <ele>560</ele>
        <time>2025-02-03T17:46:31Z</time>
      </trkpt>
      <trkpt lat="45.62934" lon="4.40023">
        <ele>557</ele>
        <time>2025-02-03T17:47:25Z</time>
      </trkpt>
      <trkpt lat="45.62886" lon="4.40079">
        <ele>553</ele>
        <time>2025-02-03T17:48:47Z</time>
      </trkpt>
      <trkpt lat="45.62857" lon="4.401">
        <ele>551</ele>
        <time>2025-02-03T17:49:31Z</time>
      </trkpt>
      <trkpt lat="45.62825" lon="4.40116">
        <ele>549</ele>
        <time>2025-02-03T17:50:16Z</time>
      </trkpt>
      <trkpt lat="45.62818" lon="4.40114">
        <ele>549</ele>
        <time>2025-02-03T17:50:26Z</time>
      </trkpt>
      <trkpt lat="45.62815" lon="4.40122">
        <ele>548</ele>
        <time>2025-02-03T17:50:34Z</time>
      </trkpt>
      <trkpt lat="45.62796" lon="4.40174">
        <ele>546</ele>
        <time>2025-02-03T17:51:29Z</time>
      </trkpt>
      <trkpt lat="45.62742" lon="4.40333">
        <ele>541</ele>
        <time>2025-02-03T17:54:14Z</time>
      </trkpt>
      <trkpt lat="45.62717" lon="4.40444">
        <ele>536</ele>
        <time>2025-02-03T17:56:03Z</time>
      </trkpt>
      <trkpt lat="45.62701" lon="4.40527">
        <ele>534</ele>
        <time>2025-02-03T17:57:23Z</time>
      </trkpt>
      <trkpt lat="45.62703" lon="4.40551">
        <ele>534</ele>
        <time>2025-02-03T17:57:45Z</time>
      </trkpt>
      <trkpt lat="45.62704" lon="4.40558">
        <ele>534</ele>
        <time>2025-02-03T17:57:52Z</time>
      </trkpt>
      <trkpt lat="45.62709" lon="4.40597">
        <ele>534</ele>
        <time>2025-02-03T17:58:29Z</time>
      </trkpt>
      <trkpt lat="45.62707" lon="4.40607">
        <ele>535</ele>
        <time>2025-02-03T17:58:39Z</time>
      </trkpt>
      <trkpt lat="45.62706" lon="4.40608">
        <ele>535</ele>
        <time>2025-02-03T17:58:40Z</time>
      </trkpt>
      <trkpt lat="45.62702" lon="4.40619">
        <ele>536</ele>
        <time>2025-02-03T17:58:52Z</time>
      </trkpt>
      <trkpt lat="45.62677" lon="4.40646">
        <ele>538</ele>
        <time>2025-02-03T17:59:34Z</time>
      </trkpt>
      <trkpt lat="45.62661" lon="4.40668">
        <ele>539</ele>
        <time>2025-02-03T18:00:03Z</time>
      </trkpt>
      <trkpt lat="45.62635" lon="4.40707">
        <ele>541</ele>
        <time>2025-02-03T18:00:54Z</time>
      </trkpt>
      <trkpt lat="45.62616" lon="4.4074">
        <ele>542</ele>
        <time>2025-02-03T18:01:34Z</time>
      </trkpt>
      <trkpt lat="45.62608" lon="4.40759">
        <ele>542</ele>
        <time>2025-02-03T18:01:54Z</time>
      </trkpt>
      <trkpt lat="45.62603" lon="4.40777">
        <ele>543</ele>
        <time>2025-02-03T18:02:12Z</time>
      </trkpt>
      <trkpt lat="45.62595" lon="4.40808">
        <ele>544</ele>
        <time>2025-02-03T18:02:43Z</time>
      </trkpt>
      <trkpt lat="45.62575" lon="4.40905">
        <ele>548</ele>
        <time>2025-02-03T18:04:18Z</time>
      </trkpt>
      <trkpt lat="45.62568" lon="4.40926">
        <ele>549</ele>
        <time>2025-02-03T18:04:39Z</time>
      </trkpt>
      <trkpt lat="45.62564" lon="4.40945">
        <ele>550</ele>
        <time>2025-02-03T18:04:58Z</time>
      </trkpt>
      <trkpt lat="45.62557" lon="4.40967">
        <ele>551</ele>
        <time>2025-02-03T18:05:20Z</time>
      </trkpt>
      <trkpt lat="45.6255" lon="4.40987">
        <ele>552</ele>
        <time>2025-02-03T18:05:41Z</time>
      </trkpt>
      <trkpt lat="45.6254" lon="4.41018">
        <ele>553</ele>
        <time>2025-02-03T18:06:13Z</time>
      </trkpt>
      <trkpt lat="45.62535" lon="4.41031">
        <ele>554</ele>
        <time>2025-02-03T18:06:27Z</time>
      </trkpt>
      <trkpt lat="45.62534" lon="4.41024">
        <ele>553</ele>
        <time>2025-02-03T18:06:34Z</time>
      </trkpt>
      <trkpt lat="45.62535" lon="4.41031">
        <ele>554</ele>
        <time>2025-02-03T18:06:40Z</time>
      </trkpt>
      <trkpt lat="45.62532" lon="4.41051">
        <ele>554</ele>
        <time>2025-02-03T18:06:59Z</time>
      </trkpt>
      <trkpt lat="45.62524" lon="4.41079">
        <ele>555</ele>
        <time>2025-02-03T18:07:28Z</time>
      </trkpt>
      <trkpt lat="45.62517" lon="4.41098">
        <ele>556</ele>
        <time>2025-02-03T18:07:48Z</time>
      </trkpt>
      <trkpt lat="45.62504" lon="4.41128">
        <ele>556</ele>
        <time>2025-02-03T18:08:21Z</time>
      </trkpt>
      <trkpt lat="45.62486" lon="4.41164">
        <ele>557</ele>
        <time>2025-02-03T18:09:02Z</time>
      </trkpt>
      <trkpt lat="45.62484" lon="4.41168">
        <ele>557</ele>
        <time>2025-02-03T18:09:06Z</time>
      </trkpt>
      <trkpt lat="45.62478" lon="4.41191">
        <ele>556</ele>
        <time>2025-02-03T18:09:29Z</time>
      </trkpt>
      <trkpt lat="45.62475" lon="4.41213">
        <ele>556</ele>
        <time>2025-02-03T18:09:50Z</time>
      </trkpt>
      <trkpt lat="45.62467" lon="4.41213">
        <ele>556</ele>
        <time>2025-02-03T18:10:01Z</time>
      </trkpt>
      <trkpt lat="45.62436" lon="4.41265">
        <ele>555</ele>
        <time>2025-02-03T18:11:05Z</time>
      </trkpt>
      <trkpt lat="45.62417" lon="4.41308">
        <ele>553</ele>
        <time>2025-02-03T18:11:52Z</time>
      </trkpt>
      <trkpt lat="45.62409" lon="4.4134">
        <ele>553</ele>
        <time>2025-02-03T18:12:24Z</time>
      </trkpt>
      <trkpt lat="45.62405" lon="4.41369">
        <ele>552</ele>
        <time>2025-02-03T18:12:52Z</time>
      </trkpt>
      <trkpt lat="45.62402" lon="4.41378">
        <ele>552</ele>
        <time>2025-02-03T18:13:01Z</time>
      </trkpt>
      <trkpt lat="45.62395" lon="4.41396">
        <ele>551</ele>
        <time>2025-02-03T18:13:20Z</time>
      </trkpt>
      <trkpt lat="45.62383" lon="4.41419">
        <ele>551</ele>
        <time>2025-02-03T18:13:47Z</time>
      </trkpt>
      <trkpt lat="45.62363" lon="4.41441">
        <ele>549</ele>
        <time>2025-02-03T18:14:21Z</time>
      </trkpt>
      <trkpt lat="45.62355" lon="4.41448">
        <ele>548</ele>
        <time>2025-02-03T18:14:33Z</time>
      </trkpt>
      <trkpt lat="45.62348" lon="4.41456">
        <ele>548</ele>
        <time>2025-02-03T18:14:45Z</time>
      </trkpt>
      <trkpt lat="45.62343" lon="4.41488">
        <ele>545</ele>
        <time>2025-02-03T18:15:16Z</time>
      </trkpt>
      <trkpt lat="45.62333" lon="4.41509">
        <ele>544</ele>
        <time>2025-02-03T18:15:39Z</time>
      </trkpt>
      <trkpt lat="45.6233" lon="4.41521">
        <ele>543</ele>
        <time>2025-02-03T18:15:51Z</time>
      </trkpt>
      <trkpt lat="45.62325" lon="4.4153">
        <ele>543</ele>
        <time>2025-02-03T18:16:02Z</time>
      </trkpt>
      <trkpt lat="45.62318" lon="4.41539">
        <ele>542</ele>
        <time>2025-02-03T18:16:14Z</time>
      </trkpt>
      <trkpt lat="45.62298" lon="4.41552">
        <ele>540</ele>
        <time>2025-02-03T18:16:44Z</time>
      </trkpt>
      <trkpt lat="45.62295" lon="4.41558">
        <ele>539</ele>
        <time>2025-02-03T18:16:51Z</time>
      </trkpt>
      <trkpt lat="45.6229" lon="4.41566">
        <ele>539</ele>
        <time>2025-02-03T18:17:01Z</time>
      </trkpt>
      <trkpt lat="45.62283" lon="4.41588">
        <ele>537</ele>
        <time>2025-02-03T18:17:23Z</time>
      </trkpt>
      <trkpt lat="45.62278" lon="4.4161">
        <ele>535</ele>
        <time>2025-02-03T18:17:45Z</time>
      </trkpt>
      <trkpt lat="45.62269" lon="4.41635">
        <ele>533</ele>
        <time>2025-02-03T18:18:11Z</time>
      </trkpt>
      <trkpt lat="45.62263" lon="4.4169">
        <ele>531</ele>
        <time>2025-02-03T18:19:03Z</time>
      </trkpt>
      <trkpt lat="45.6225" lon="4.41759">
        <ele>529</ele>
        <time>2025-02-03T18:20:10Z</time>
      </trkpt>
      <trkpt lat="45.62248" lon="4.41766">
        <ele>529</ele>
        <time>2025-02-03T18:20:17Z</time>
      </trkpt>
      <trkpt lat="45.62235" lon="4.41767">
        <ele>527</ele>
        <time>2025-02-03T18:20:34Z</time>
      </trkpt>
      <trkpt lat="45.62224" lon="4.41773">
        <ele>526</ele>
        <time>2025-02-03T18:20:50Z</time>
      </trkpt>
      <trkpt lat="45.62177" lon="4.41812">
        <ele>521</ele>
        <time>2025-02-03T18:22:02Z</time>
      </trkpt>
      <trkpt lat="45.62168" lon="4.41818">
        <ele>520</ele>
        <time>2025-02-03T18:22:16Z</time>
      </trkpt>
      <trkpt lat="45.62121" lon="4.41851">
        <ele>516</ele>
        <time>2025-02-03T18:23:26Z</time>
      </trkpt>
      <trkpt lat="45.62101" lon="4.4186">
        <ele>514</ele>
        <time>2025-02-03T18:23:54Z</time>
      </trkpt>
      <trkpt lat="45.62057" lon="4.41752">
        <ele>511</ele>
        <time>2025-02-03T18:25:50Z</time>
      </trkpt>
      <trkpt lat="45.61812" lon="4.41663">
        <ele>492</ele>
        <time>2025-02-03T18:31:27Z</time>
      </trkpt>
      <trkpt lat="45.61809" lon="4.41676">
        <ele>491</ele>
        <time>2025-02-03T18:31:40Z</time>
      </trkpt>
      <trkpt lat="45.61805" lon="4.41749">
        <ele>488</ele>
        <time>2025-02-03T18:32:49Z</time>
      </trkpt>
      <trkpt lat="45.61813" lon="4.41777">
        <ele>488</ele>
        <time>2025-02-03T18:33:17Z</time>
      </trkpt>
      <trkpt lat="45.61811" lon="4.41798">
        <ele>486</ele>
        <time>2025-02-03T18:33:37Z</time>
      </trkpt>
      <trkpt lat="45.61779" lon="4.41867">
        <ele>478</ele>
        <time>2025-02-03T18:34:54Z</time>
      </trkpt>
      <trkpt lat="45.61768" lon="4.41912">
        <ele>473</ele>
        <time>2025-02-03T18:35:38Z</time>
      </trkpt>
      <trkpt lat="45.6176" lon="4.41958">
        <ele>471</ele>
        <time>2025-02-03T18:36:23Z</time>
      </trkpt>
      <trkpt lat="45.61745" lon="4.41981">
        <ele>469</ele>
        <time>2025-02-03T18:36:52Z</time>
      </trkpt>
      <trkpt lat="45.61742" lon="4.42001">
        <ele>469</ele>
        <time>2025-02-03T18:37:11Z</time>
      </trkpt>
      <trkpt lat="45.61745" lon="4.42021">
        <ele>469</ele>
        <time>2025-02-03T18:37:30Z</time>
      </trkpt>
      <trkpt lat="45.61752" lon="4.4204">
        <ele>469</ele>
        <time>2025-02-03T18:37:50Z</time>
      </trkpt>
      <trkpt lat="45.6177" lon="4.42092">
        <ele>468</ele>
        <time>2025-02-03T18:38:44Z</time>
      </trkpt>
    </trkseg>
  </trk>
</gpx>